<?xml version="1.0" encoding="UTF-8" standalone="no" ?>
<gpx xmlns="http://www.topografix.com/GPX/1/1" xmlns:xsi="http://www.w3.org/2001/XMLSchema-instance" xsi:schemaLocation="http://www.topografix.com/GPX/1/1 http://www.topografix.com/GPX/1/1/gpx.xsd" version="1.1" creator="VisuGPX - https://www.visugpx.com">
  <metadata>
    <name>Petit Pré, Roche Pourrie</name>
  </metadata>
  <trk>
    <name><![CDATA[Petit Pré, Roche Pourrie_1]]></name>
    <trkseg>
      <trkpt lat="45.6701" lon="6.39437">
        <ele>346</ele>
        <time>2017-05-26T12:40:01Z</time>
      </trkpt>
      <trkpt lat="45.67032" lon="6.3945">
        <ele>346</ele>
        <time>2017-05-26T12:40:10Z</time>
      </trkpt>
      <trkpt lat="45.67052" lon="6.39467">
        <ele>365</ele>
        <time>2017-05-26T12:40:22Z</time>
      </trkpt>
      <trkpt lat="45.67071" lon="6.39482">
        <ele>365</ele>
        <time>2017-05-26T12:40:40Z</time>
      </trkpt>
      <trkpt lat="45.6709" lon="6.39495">
        <ele>365</ele>
        <time>2017-05-26T12:40:55Z</time>
      </trkpt>
      <trkpt lat="45.67108" lon="6.39503">
        <ele>365</ele>
        <time>2017-05-26T12:41:10Z</time>
      </trkpt>
      <trkpt lat="45.67125" lon="6.3952">
        <ele>365</ele>
        <time>2017-05-26T12:41:28Z</time>
      </trkpt>
      <trkpt lat="45.67144" lon="6.39525">
        <ele>364</ele>
        <time>2017-05-26T12:41:46Z</time>
      </trkpt>
      <trkpt lat="45.67159" lon="6.39538">
        <ele>364</ele>
        <time>2017-05-26T12:42:01Z</time>
      </trkpt>
      <trkpt lat="45.67171" lon="6.39561">
        <ele>383</ele>
        <time>2017-05-26T12:42:16Z</time>
      </trkpt>
      <trkpt lat="45.67187" lon="6.39578">
        <ele>383</ele>
        <time>2017-05-26T12:42:34Z</time>
      </trkpt>
      <trkpt lat="45.67208" lon="6.39573">
        <ele>383</ele>
        <time>2017-05-26T12:42:52Z</time>
      </trkpt>
      <trkpt lat="45.67228" lon="6.39575">
        <ele>385</ele>
        <time>2017-05-26T12:43:10Z</time>
      </trkpt>
      <trkpt lat="45.67245" lon="6.39597">
        <ele>385</ele>
        <time>2017-05-26T12:43:28Z</time>
      </trkpt>
      <trkpt lat="45.67249" lon="6.39626">
        <ele>395</ele>
        <time>2017-05-26T12:43:43Z</time>
      </trkpt>
      <trkpt lat="45.67244" lon="6.39657">
        <ele>395</ele>
        <time>2017-05-26T12:43:58Z</time>
      </trkpt>
      <trkpt lat="45.67247" lon="6.39683">
        <ele>395</ele>
        <time>2017-05-26T12:44:10Z</time>
      </trkpt>
      <trkpt lat="45.6725" lon="6.3971">
        <ele>403</ele>
        <time>2017-05-26T12:44:22Z</time>
      </trkpt>
      <trkpt lat="45.67242" lon="6.39736">
        <ele>403</ele>
        <time>2017-05-26T12:44:37Z</time>
      </trkpt>
      <trkpt lat="45.67224" lon="6.3975">
        <ele>403</ele>
        <time>2017-05-26T12:44:52Z</time>
      </trkpt>
      <trkpt lat="45.67205" lon="6.39754">
        <ele>415</ele>
        <time>2017-05-26T12:45:07Z</time>
      </trkpt>
      <trkpt lat="45.67183" lon="6.39753">
        <ele>415</ele>
        <time>2017-05-26T12:45:16Z</time>
      </trkpt>
      <trkpt lat="45.67162" lon="6.39744">
        <ele>415</ele>
        <time>2017-05-26T12:45:28Z</time>
      </trkpt>
      <trkpt lat="45.6714" lon="6.39737">
        <ele>415</ele>
        <time>2017-05-26T12:45:40Z</time>
      </trkpt>
      <trkpt lat="45.67125" lon="6.39722">
        <ele>415</ele>
        <time>2017-05-26T12:45:49Z</time>
      </trkpt>
      <trkpt lat="45.67106" lon="6.39703">
        <ele>412</ele>
        <time>2017-05-26T12:45:58Z</time>
      </trkpt>
      <trkpt lat="45.67086" lon="6.39726">
        <ele>417</ele>
        <time>2017-05-26T12:46:07Z</time>
      </trkpt>
      <trkpt lat="45.67067" lon="6.39748">
        <ele>417</ele>
        <time>2017-05-26T12:46:16Z</time>
      </trkpt>
      <trkpt lat="45.67042" lon="6.39771">
        <ele>417</ele>
        <time>2017-05-26T12:46:25Z</time>
      </trkpt>
      <trkpt lat="45.67041" lon="6.39799">
        <ele>397</ele>
        <time>2017-05-26T12:46:37Z</time>
      </trkpt>
      <trkpt lat="45.67052" lon="6.39824">
        <ele>427</ele>
        <time>2017-05-26T12:46:52Z</time>
      </trkpt>
      <trkpt lat="45.67071" lon="6.39835">
        <ele>427</ele>
        <time>2017-05-26T12:47:10Z</time>
      </trkpt>
      <trkpt lat="45.67091" lon="6.39826">
        <ele>427</ele>
        <time>2017-05-26T12:47:28Z</time>
      </trkpt>
      <trkpt lat="45.67104" lon="6.39848">
        <ele>427</ele>
        <time>2017-05-26T12:50:07Z</time>
      </trkpt>
      <trkpt lat="45.67117" lon="6.39868">
        <ele>427</ele>
        <time>2017-05-26T12:50:22Z</time>
      </trkpt>
      <trkpt lat="45.67133" lon="6.39889">
        <ele>450</ele>
        <time>2017-05-26T12:50:40Z</time>
      </trkpt>
      <trkpt lat="45.67149" lon="6.39902">
        <ele>450</ele>
        <time>2017-05-26T12:50:55Z</time>
      </trkpt>
      <trkpt lat="45.67161" lon="6.39925">
        <ele>450</ele>
        <time>2017-05-26T12:51:13Z</time>
      </trkpt>
      <trkpt lat="45.67175" lon="6.39945">
        <ele>450</ele>
        <time>2017-05-26T12:51:31Z</time>
      </trkpt>
      <trkpt lat="45.6719" lon="6.39963">
        <ele>467</ele>
        <time>2017-05-26T12:51:46Z</time>
      </trkpt>
      <trkpt lat="45.67205" lon="6.39981">
        <ele>467</ele>
        <time>2017-05-26T12:52:01Z</time>
      </trkpt>
      <trkpt lat="45.67215" lon="6.40011">
        <ele>449</ele>
        <time>2017-05-26T12:52:16Z</time>
      </trkpt>
      <trkpt lat="45.6722" lon="6.40036">
        <ele>449</ele>
        <time>2017-05-26T12:52:28Z</time>
      </trkpt>
      <trkpt lat="45.67222" lon="6.40065">
        <ele>514</ele>
        <time>2017-05-26T12:52:40Z</time>
      </trkpt>
      <trkpt lat="45.67225" lon="6.4009">
        <ele>461</ele>
        <time>2017-05-26T12:52:52Z</time>
      </trkpt>
      <trkpt lat="45.67242" lon="6.40104">
        <ele>461</ele>
        <time>2017-05-26T12:53:04Z</time>
      </trkpt>
      <trkpt lat="45.67254" lon="6.40131">
        <ele>470</ele>
        <time>2017-05-26T12:53:19Z</time>
      </trkpt>
      <trkpt lat="45.67263" lon="6.4016">
        <ele>470</ele>
        <time>2017-05-26T12:53:31Z</time>
      </trkpt>
      <trkpt lat="45.67259" lon="6.40191">
        <ele>470</ele>
        <time>2017-05-26T12:53:43Z</time>
      </trkpt>
      <trkpt lat="45.67248" lon="6.40211">
        <ele>474</ele>
        <time>2017-05-26T12:53:52Z</time>
      </trkpt>
      <trkpt lat="45.67237" lon="6.4024">
        <ele>474</ele>
        <time>2017-05-26T12:54:04Z</time>
      </trkpt>
      <trkpt lat="45.67232" lon="6.40273">
        <ele>474</ele>
        <time>2017-05-26T12:54:16Z</time>
      </trkpt>
      <trkpt lat="45.67226" lon="6.40297">
        <ele>482</ele>
        <time>2017-05-26T12:54:25Z</time>
      </trkpt>
      <trkpt lat="45.67219" lon="6.40324">
        <ele>482</ele>
        <time>2017-05-26T12:54:34Z</time>
      </trkpt>
      <trkpt lat="45.67211" lon="6.40352">
        <ele>482</ele>
        <time>2017-05-26T12:54:43Z</time>
      </trkpt>
      <trkpt lat="45.67204" lon="6.40384">
        <ele>468</ele>
        <time>2017-05-26T12:54:52Z</time>
      </trkpt>
      <trkpt lat="45.67203" lon="6.40413">
        <ele>468</ele>
        <time>2017-05-26T12:55:01Z</time>
      </trkpt>
      <trkpt lat="45.67203" lon="6.40443">
        <ele>468</ele>
        <time>2017-05-26T12:55:13Z</time>
      </trkpt>
      <trkpt lat="45.67203" lon="6.40475">
        <ele>469</ele>
        <time>2017-05-26T12:55:25Z</time>
      </trkpt>
      <trkpt lat="45.67208" lon="6.40508">
        <ele>469</ele>
        <time>2017-05-26T12:55:37Z</time>
      </trkpt>
      <trkpt lat="45.67216" lon="6.40539">
        <ele>507</ele>
        <time>2017-05-26T12:55:49Z</time>
      </trkpt>
      <trkpt lat="45.6722" lon="6.40571">
        <ele>512</ele>
        <time>2017-05-26T12:56:01Z</time>
      </trkpt>
      <trkpt lat="45.67221" lon="6.40604">
        <ele>512</ele>
        <time>2017-05-26T12:56:13Z</time>
      </trkpt>
      <trkpt lat="45.67219" lon="6.40637">
        <ele>515</ele>
        <time>2017-05-26T12:56:25Z</time>
      </trkpt>
      <trkpt lat="45.67222" lon="6.4067">
        <ele>515</ele>
        <time>2017-05-26T12:56:37Z</time>
      </trkpt>
      <trkpt lat="45.67224" lon="6.40703">
        <ele>515</ele>
        <time>2017-05-26T12:56:49Z</time>
      </trkpt>
      <trkpt lat="45.67223" lon="6.40736">
        <ele>514</ele>
        <time>2017-05-26T12:57:01Z</time>
      </trkpt>
      <trkpt lat="45.67227" lon="6.40762">
        <ele>514</ele>
        <time>2017-05-26T12:57:13Z</time>
      </trkpt>
      <trkpt lat="45.67228" lon="6.40788">
        <ele>514</ele>
        <time>2017-05-26T12:57:25Z</time>
      </trkpt>
      <trkpt lat="45.67231" lon="6.40819">
        <ele>516</ele>
        <time>2017-05-26T12:57:40Z</time>
      </trkpt>
      <trkpt lat="45.67235" lon="6.40846">
        <ele>516</ele>
        <time>2017-05-26T12:57:55Z</time>
      </trkpt>
      <trkpt lat="45.67246" lon="6.40874">
        <ele>516</ele>
        <time>2017-05-26T12:58:13Z</time>
      </trkpt>
      <trkpt lat="45.67252" lon="6.40904">
        <ele>527</ele>
        <time>2017-05-26T12:58:28Z</time>
      </trkpt>
      <trkpt lat="45.67267" lon="6.40922">
        <ele>527</ele>
        <time>2017-05-26T12:58:46Z</time>
      </trkpt>
      <trkpt lat="45.67281" lon="6.4094">
        <ele>527</ele>
        <time>2017-05-26T12:59:01Z</time>
      </trkpt>
      <trkpt lat="45.67294" lon="6.40962">
        <ele>551</ele>
        <time>2017-05-26T12:59:19Z</time>
      </trkpt>
      <trkpt lat="45.67309" lon="6.40982">
        <ele>551</ele>
        <time>2017-05-26T12:59:40Z</time>
      </trkpt>
      <trkpt lat="45.67316" lon="6.41012">
        <ele>591</ele>
        <time>2017-05-26T13:00:01Z</time>
      </trkpt>
      <trkpt lat="45.67329" lon="6.41036">
        <ele>551</ele>
        <time>2017-05-26T13:00:28Z</time>
      </trkpt>
      <trkpt lat="45.67345" lon="6.41052">
        <ele>556</ele>
        <time>2017-05-26T13:00:46Z</time>
      </trkpt>
      <trkpt lat="45.67355" lon="6.41076">
        <ele>556</ele>
        <time>2017-05-26T13:01:04Z</time>
      </trkpt>
      <trkpt lat="45.67365" lon="6.41101">
        <ele>556</ele>
        <time>2017-05-26T13:01:19Z</time>
      </trkpt>
      <trkpt lat="45.67379" lon="6.41124">
        <ele>564</ele>
        <time>2017-05-26T13:01:34Z</time>
      </trkpt>
      <trkpt lat="45.67396" lon="6.41101">
        <ele>564</ele>
        <time>2017-05-26T13:01:49Z</time>
      </trkpt>
      <trkpt lat="45.67405" lon="6.41073">
        <ele>564</ele>
        <time>2017-05-26T13:01:58Z</time>
      </trkpt>
      <trkpt lat="45.67414" lon="6.41043">
        <ele>564</ele>
        <time>2017-05-26T13:02:07Z</time>
      </trkpt>
      <trkpt lat="45.67423" lon="6.41013">
        <ele>561</ele>
        <time>2017-05-26T13:02:16Z</time>
      </trkpt>
      <trkpt lat="45.67431" lon="6.40985">
        <ele>561</ele>
        <time>2017-05-26T13:02:25Z</time>
      </trkpt>
      <trkpt lat="45.67443" lon="6.40959">
        <ele>561</ele>
        <time>2017-05-26T13:02:34Z</time>
      </trkpt>
      <trkpt lat="45.67457" lon="6.40935">
        <ele>562</ele>
        <time>2017-05-26T13:02:43Z</time>
      </trkpt>
      <trkpt lat="45.67474" lon="6.40919">
        <ele>569</ele>
        <time>2017-05-26T13:02:52Z</time>
      </trkpt>
      <trkpt lat="45.67494" lon="6.40916">
        <ele>569</ele>
        <time>2017-05-26T13:03:01Z</time>
      </trkpt>
      <trkpt lat="45.67514" lon="6.40911">
        <ele>569</ele>
        <time>2017-05-26T13:03:10Z</time>
      </trkpt>
      <trkpt lat="45.67534" lon="6.4091">
        <ele>569</ele>
        <time>2017-05-26T13:03:19Z</time>
      </trkpt>
      <trkpt lat="45.6755" lon="6.40895">
        <ele>588</ele>
        <time>2017-05-26T13:03:28Z</time>
      </trkpt>
      <trkpt lat="45.67553" lon="6.40869">
        <ele>585</ele>
        <time>2017-05-26T13:03:37Z</time>
      </trkpt>
      <trkpt lat="45.67548" lon="6.40843">
        <ele>585</ele>
        <time>2017-05-26T13:03:46Z</time>
      </trkpt>
      <trkpt lat="45.67552" lon="6.40816">
        <ele>585</ele>
        <time>2017-05-26T13:03:55Z</time>
      </trkpt>
      <trkpt lat="45.67558" lon="6.40789">
        <ele>593</ele>
        <time>2017-05-26T13:04:04Z</time>
      </trkpt>
      <trkpt lat="45.67564" lon="6.40761">
        <ele>593</ele>
        <time>2017-05-26T13:04:16Z</time>
      </trkpt>
      <trkpt lat="45.6758" lon="6.40741">
        <ele>593</ele>
        <time>2017-05-26T13:04:28Z</time>
      </trkpt>
      <trkpt lat="45.67601" lon="6.40733">
        <ele>593</ele>
        <time>2017-05-26T13:04:40Z</time>
      </trkpt>
      <trkpt lat="45.67611" lon="6.40757">
        <ele>593</ele>
        <time>2017-05-26T13:04:55Z</time>
      </trkpt>
      <trkpt lat="45.67611" lon="6.40786">
        <ele>593</ele>
        <time>2017-05-26T13:05:04Z</time>
      </trkpt>
      <trkpt lat="45.6762" lon="6.40815">
        <ele>585</ele>
        <time>2017-05-26T13:05:13Z</time>
      </trkpt>
      <trkpt lat="45.67632" lon="6.40839">
        <ele>603</ele>
        <time>2017-05-26T13:05:22Z</time>
      </trkpt>
      <trkpt lat="45.67644" lon="6.40862">
        <ele>603</ele>
        <time>2017-05-26T13:05:31Z</time>
      </trkpt>
      <trkpt lat="45.67655" lon="6.40887">
        <ele>608</ele>
        <time>2017-05-26T13:05:40Z</time>
      </trkpt>
      <trkpt lat="45.67641" lon="6.40912">
        <ele>608</ele>
        <time>2017-05-26T13:05:52Z</time>
      </trkpt>
      <trkpt lat="45.67622" lon="6.40917">
        <ele>588</ele>
        <time>2017-05-26T13:06:01Z</time>
      </trkpt>
      <trkpt lat="45.67606" lon="6.40935">
        <ele>588</ele>
        <time>2017-05-26T13:06:10Z</time>
      </trkpt>
      <trkpt lat="45.67597" lon="6.40962">
        <ele>603</ele>
        <time>2017-05-26T13:06:19Z</time>
      </trkpt>
      <trkpt lat="45.67595" lon="6.4099">
        <ele>603</ele>
        <time>2017-05-26T13:06:28Z</time>
      </trkpt>
      <trkpt lat="45.67591" lon="6.41019">
        <ele>603</ele>
        <time>2017-05-26T13:06:37Z</time>
      </trkpt>
      <trkpt lat="45.67584" lon="6.41046">
        <ele>616</ele>
        <time>2017-05-26T13:06:46Z</time>
      </trkpt>
      <trkpt lat="45.67582" lon="6.41078">
        <ele>616</ele>
        <time>2017-05-26T13:06:55Z</time>
      </trkpt>
      <trkpt lat="45.67584" lon="6.41105">
        <ele>616</ele>
        <time>2017-05-26T13:07:04Z</time>
      </trkpt>
      <trkpt lat="45.67588" lon="6.41132">
        <ele>617</ele>
        <time>2017-05-26T13:07:13Z</time>
      </trkpt>
      <trkpt lat="45.67597" lon="6.41164">
        <ele>617</ele>
        <time>2017-05-26T13:07:25Z</time>
      </trkpt>
      <trkpt lat="45.67608" lon="6.41192">
        <ele>617</ele>
        <time>2017-05-26T13:07:37Z</time>
      </trkpt>
      <trkpt lat="45.67619" lon="6.41214">
        <ele>613</ele>
        <time>2017-05-26T13:07:46Z</time>
      </trkpt>
      <trkpt lat="45.67634" lon="6.41241">
        <ele>631</ele>
        <time>2017-05-26T13:07:58Z</time>
      </trkpt>
      <trkpt lat="45.67652" lon="6.41262">
        <ele>631</ele>
        <time>2017-05-26T13:08:10Z</time>
      </trkpt>
      <trkpt lat="45.67671" lon="6.41283">
        <ele>631</ele>
        <time>2017-05-26T13:08:22Z</time>
      </trkpt>
      <trkpt lat="45.6768" lon="6.41306">
        <ele>634</ele>
        <time>2017-05-26T13:08:31Z</time>
      </trkpt>
      <trkpt lat="45.67679" lon="6.41332">
        <ele>634</ele>
        <time>2017-05-26T13:08:40Z</time>
      </trkpt>
      <trkpt lat="45.6767" lon="6.41355">
        <ele>634</ele>
        <time>2017-05-26T13:08:49Z</time>
      </trkpt>
      <trkpt lat="45.67656" lon="6.41381">
        <ele>651</ele>
        <time>2017-05-26T13:09:01Z</time>
      </trkpt>
      <trkpt lat="45.67641" lon="6.41406">
        <ele>651</ele>
        <time>2017-05-26T13:09:13Z</time>
      </trkpt>
      <trkpt lat="45.67627" lon="6.41424">
        <ele>651</ele>
        <time>2017-05-26T13:09:22Z</time>
      </trkpt>
      <trkpt lat="45.67613" lon="6.41442">
        <ele>635</ele>
        <time>2017-05-26T13:09:31Z</time>
      </trkpt>
      <trkpt lat="45.67595" lon="6.41458">
        <ele>635</ele>
        <time>2017-05-26T13:09:43Z</time>
      </trkpt>
      <trkpt lat="45.67574" lon="6.41458">
        <ele>635</ele>
        <time>2017-05-26T13:09:52Z</time>
      </trkpt>
      <trkpt lat="45.67555" lon="6.41467">
        <ele>673</ele>
        <time>2017-05-26T13:10:04Z</time>
      </trkpt>
      <trkpt lat="45.67535" lon="6.41478">
        <ele>665</ele>
        <time>2017-05-26T13:10:16Z</time>
      </trkpt>
      <trkpt lat="45.67514" lon="6.41482">
        <ele>665</ele>
        <time>2017-05-26T13:10:25Z</time>
      </trkpt>
      <trkpt lat="45.67495" lon="6.41487">
        <ele>665</ele>
        <time>2017-05-26T13:10:34Z</time>
      </trkpt>
      <trkpt lat="45.67475" lon="6.41491">
        <ele>665</ele>
        <time>2017-05-26T13:10:43Z</time>
      </trkpt>
      <trkpt lat="45.67452" lon="6.41496">
        <ele>658</ele>
        <time>2017-05-26T13:10:52Z</time>
      </trkpt>
      <trkpt lat="45.67433" lon="6.41502">
        <ele>658</ele>
        <time>2017-05-26T13:11:01Z</time>
      </trkpt>
      <trkpt lat="45.67414" lon="6.41518">
        <ele>658</ele>
        <time>2017-05-26T13:11:13Z</time>
      </trkpt>
      <trkpt lat="45.67394" lon="6.41522">
        <ele>658</ele>
        <time>2017-05-26T13:11:19Z</time>
      </trkpt>
      <trkpt lat="45.67374" lon="6.41514">
        <ele>658</ele>
        <time>2017-05-26T13:11:28Z</time>
      </trkpt>
      <trkpt lat="45.67355" lon="6.41504">
        <ele>658</ele>
        <time>2017-05-26T13:11:40Z</time>
      </trkpt>
      <trkpt lat="45.67338" lon="6.41517">
        <ele>658</ele>
        <time>2017-05-26T13:11:49Z</time>
      </trkpt>
      <trkpt lat="45.67317" lon="6.41531">
        <ele>658</ele>
        <time>2017-05-26T13:12:01Z</time>
      </trkpt>
      <trkpt lat="45.67299" lon="6.41556">
        <ele>707</ele>
        <time>2017-05-26T13:12:13Z</time>
      </trkpt>
      <trkpt lat="45.67282" lon="6.41565">
        <ele>685</ele>
        <time>2017-05-26T13:12:22Z</time>
      </trkpt>
      <trkpt lat="45.67263" lon="6.41574">
        <ele>685</ele>
        <time>2017-05-26T13:12:31Z</time>
      </trkpt>
      <trkpt lat="45.67243" lon="6.41574">
        <ele>685</ele>
        <time>2017-05-26T13:12:40Z</time>
      </trkpt>
      <trkpt lat="45.67226" lon="6.41587">
        <ele>685</ele>
        <time>2017-05-26T13:12:49Z</time>
      </trkpt>
      <trkpt lat="45.67211" lon="6.41603">
        <ele>685</ele>
        <time>2017-05-26T13:12:58Z</time>
      </trkpt>
      <trkpt lat="45.67189" lon="6.41619">
        <ele>667</ele>
        <time>2017-05-26T13:13:10Z</time>
      </trkpt>
      <trkpt lat="45.67179" lon="6.41641">
        <ele>696</ele>
        <time>2017-05-26T13:13:22Z</time>
      </trkpt>
      <trkpt lat="45.67165" lon="6.41661">
        <ele>696</ele>
        <time>2017-05-26T13:13:31Z</time>
      </trkpt>
      <trkpt lat="45.67151" lon="6.41678">
        <ele>696</ele>
        <time>2017-05-26T13:13:40Z</time>
      </trkpt>
      <trkpt lat="45.67137" lon="6.41696">
        <ele>696</ele>
        <time>2017-05-26T13:13:49Z</time>
      </trkpt>
      <trkpt lat="45.67127" lon="6.41727">
        <ele>717</ele>
        <time>2017-05-26T13:14:01Z</time>
      </trkpt>
      <trkpt lat="45.67122" lon="6.41756">
        <ele>701</ele>
        <time>2017-05-26T13:14:13Z</time>
      </trkpt>
      <trkpt lat="45.6712" lon="6.41785">
        <ele>701</ele>
        <time>2017-05-26T13:14:25Z</time>
      </trkpt>
      <trkpt lat="45.67127" lon="6.41811">
        <ele>726</ele>
        <time>2017-05-26T13:14:37Z</time>
      </trkpt>
      <trkpt lat="45.6713" lon="6.4184">
        <ele>726</ele>
        <time>2017-05-26T13:14:49Z</time>
      </trkpt>
      <trkpt lat="45.67133" lon="6.41867">
        <ele>726</ele>
        <time>2017-05-26T13:15:01Z</time>
      </trkpt>
      <trkpt lat="45.67132" lon="6.41898">
        <ele>721</ele>
        <time>2017-05-26T13:15:13Z</time>
      </trkpt>
      <trkpt lat="45.67127" lon="6.41924">
        <ele>721</ele>
        <time>2017-05-26T13:15:25Z</time>
      </trkpt>
      <trkpt lat="45.67134" lon="6.41951">
        <ele>721</ele>
        <time>2017-05-26T13:15:37Z</time>
      </trkpt>
      <trkpt lat="45.67153" lon="6.41963">
        <ele>714</ele>
        <time>2017-05-26T13:15:49Z</time>
      </trkpt>
      <trkpt lat="45.67174" lon="6.41968">
        <ele>714</ele>
        <time>2017-05-26T13:16:04Z</time>
      </trkpt>
      <trkpt lat="45.67193" lon="6.41981">
        <ele>714</ele>
        <time>2017-05-26T13:16:13Z</time>
      </trkpt>
      <trkpt lat="45.67212" lon="6.42004">
        <ele>758</ele>
        <time>2017-05-26T13:16:25Z</time>
      </trkpt>
      <trkpt lat="45.67219" lon="6.4203">
        <ele>758</ele>
        <time>2017-05-26T13:16:37Z</time>
      </trkpt>
      <trkpt lat="45.67225" lon="6.42054">
        <ele>742</ele>
        <time>2017-05-26T13:16:46Z</time>
      </trkpt>
      <trkpt lat="45.67234" lon="6.4208">
        <ele>742</ele>
        <time>2017-05-26T13:16:58Z</time>
      </trkpt>
      <trkpt lat="45.67246" lon="6.42101">
        <ele>742</ele>
        <time>2017-05-26T13:17:10Z</time>
      </trkpt>
      <trkpt lat="45.67261" lon="6.42118">
        <ele>742</ele>
        <time>2017-05-26T13:17:19Z</time>
      </trkpt>
      <trkpt lat="45.67275" lon="6.42137">
        <ele>727</ele>
        <time>2017-05-26T13:17:25Z</time>
      </trkpt>
      <trkpt lat="45.67264" lon="6.42166">
        <ele>727</ele>
        <time>2017-05-26T13:17:37Z</time>
      </trkpt>
      <trkpt lat="45.6727" lon="6.42191">
        <ele>727</ele>
        <time>2017-05-26T13:17:49Z</time>
      </trkpt>
      <trkpt lat="45.67282" lon="6.42213">
        <ele>716</ele>
        <time>2017-05-26T13:17:58Z</time>
      </trkpt>
      <trkpt lat="45.67285" lon="6.42241">
        <ele>716</ele>
        <time>2017-05-26T13:18:10Z</time>
      </trkpt>
      <trkpt lat="45.67294" lon="6.42271">
        <ele>772</ele>
        <time>2017-05-26T13:18:22Z</time>
      </trkpt>
      <trkpt lat="45.67297" lon="6.42299">
        <ele>766</ele>
        <time>2017-05-26T13:18:34Z</time>
      </trkpt>
      <trkpt lat="45.67304" lon="6.4233">
        <ele>766</ele>
        <time>2017-05-26T13:18:46Z</time>
      </trkpt>
      <trkpt lat="45.673" lon="6.42358">
        <ele>766</ele>
        <time>2017-05-26T13:18:58Z</time>
      </trkpt>
      <trkpt lat="45.67303" lon="6.42385">
        <ele>769</ele>
        <time>2017-05-26T13:19:07Z</time>
      </trkpt>
      <trkpt lat="45.6731" lon="6.42409">
        <ele>769</ele>
        <time>2017-05-26T13:19:16Z</time>
      </trkpt>
      <trkpt lat="45.67317" lon="6.42438">
        <ele>769</ele>
        <time>2017-05-26T13:19:28Z</time>
      </trkpt>
      <trkpt lat="45.67323" lon="6.42467">
        <ele>785</ele>
        <time>2017-05-26T13:19:40Z</time>
      </trkpt>
      <trkpt lat="45.67302" lon="6.42471">
        <ele>785</ele>
        <time>2017-05-26T13:19:52Z</time>
      </trkpt>
      <trkpt lat="45.67281" lon="6.42493">
        <ele>749</ele>
        <time>2017-05-26T13:20:10Z</time>
      </trkpt>
      <trkpt lat="45.67267" lon="6.4251">
        <ele>749</ele>
        <time>2017-05-26T13:20:19Z</time>
      </trkpt>
      <trkpt lat="45.67257" lon="6.42531">
        <ele>749</ele>
        <time>2017-05-26T13:20:28Z</time>
      </trkpt>
      <trkpt lat="45.67244" lon="6.42556">
        <ele>766</ele>
        <time>2017-05-26T13:20:40Z</time>
      </trkpt>
      <trkpt lat="45.67233" lon="6.42582">
        <ele>766</ele>
        <time>2017-05-26T13:20:52Z</time>
      </trkpt>
      <trkpt lat="45.67227" lon="6.42608">
        <ele>766</ele>
        <time>2017-05-26T13:21:04Z</time>
      </trkpt>
      <trkpt lat="45.67241" lon="6.4263">
        <ele>772</ele>
        <time>2017-05-26T13:21:16Z</time>
      </trkpt>
      <trkpt lat="45.67252" lon="6.42607">
        <ele>766</ele>
        <time>2017-05-26T13:21:28Z</time>
      </trkpt>
      <trkpt lat="45.6726" lon="6.42576">
        <ele>766</ele>
        <time>2017-05-26T13:21:40Z</time>
      </trkpt>
      <trkpt lat="45.67268" lon="6.42552">
        <ele>766</ele>
        <time>2017-05-26T13:21:49Z</time>
      </trkpt>
      <trkpt lat="45.67283" lon="6.42535">
        <ele>749</ele>
        <time>2017-05-26T13:21:58Z</time>
      </trkpt>
      <trkpt lat="45.673" lon="6.42523">
        <ele>785</ele>
        <time>2017-05-26T13:22:07Z</time>
      </trkpt>
      <trkpt lat="45.67319" lon="6.42521">
        <ele>785</ele>
        <time>2017-05-26T13:22:16Z</time>
      </trkpt>
      <trkpt lat="45.67339" lon="6.42511">
        <ele>785</ele>
        <time>2017-05-26T13:22:25Z</time>
      </trkpt>
      <trkpt lat="45.67344" lon="6.42477">
        <ele>785</ele>
        <time>2017-05-26T13:22:34Z</time>
      </trkpt>
      <trkpt lat="45.67345" lon="6.42448">
        <ele>769</ele>
        <time>2017-05-26T13:22:43Z</time>
      </trkpt>
      <trkpt lat="45.67352" lon="6.42418">
        <ele>769</ele>
        <time>2017-05-26T13:22:52Z</time>
      </trkpt>
      <trkpt lat="45.67357" lon="6.42387">
        <ele>769</ele>
        <time>2017-05-26T13:23:01Z</time>
      </trkpt>
      <trkpt lat="45.67359" lon="6.42361">
        <ele>766</ele>
        <time>2017-05-26T13:23:10Z</time>
      </trkpt>
      <trkpt lat="45.67366" lon="6.42334">
        <ele>766</ele>
        <time>2017-05-26T13:23:22Z</time>
      </trkpt>
      <trkpt lat="45.67371" lon="6.42308">
        <ele>766</ele>
        <time>2017-05-26T13:23:34Z</time>
      </trkpt>
      <trkpt lat="45.6737" lon="6.42281">
        <ele>772</ele>
        <time>2017-05-26T13:23:46Z</time>
      </trkpt>
      <trkpt lat="45.67373" lon="6.42256">
        <ele>772</ele>
        <time>2017-05-26T13:23:58Z</time>
      </trkpt>
      <trkpt lat="45.67372" lon="6.42228">
        <ele>772</ele>
        <time>2017-05-26T13:24:10Z</time>
      </trkpt>
      <trkpt lat="45.67362" lon="6.42204">
        <ele>782</ele>
        <time>2017-05-26T13:24:25Z</time>
      </trkpt>
      <trkpt lat="45.67362" lon="6.42178">
        <ele>782</ele>
        <time>2017-05-26T13:24:37Z</time>
      </trkpt>
      <trkpt lat="45.67363" lon="6.42147">
        <ele>782</ele>
        <time>2017-05-26T13:24:52Z</time>
      </trkpt>
      <trkpt lat="45.67351" lon="6.42125">
        <ele>782</ele>
        <time>2017-05-26T13:25:07Z</time>
      </trkpt>
      <trkpt lat="45.67343" lon="6.421">
        <ele>795</ele>
        <time>2017-05-26T13:25:22Z</time>
      </trkpt>
      <trkpt lat="45.67352" lon="6.42072">
        <ele>795</ele>
        <time>2017-05-26T13:25:37Z</time>
      </trkpt>
      <trkpt lat="45.67351" lon="6.42045">
        <ele>795</ele>
        <time>2017-05-26T13:25:52Z</time>
      </trkpt>
      <trkpt lat="45.67353" lon="6.42016">
        <ele>803</ele>
        <time>2017-05-26T13:26:07Z</time>
      </trkpt>
      <trkpt lat="45.67355" lon="6.41986">
        <ele>803</ele>
        <time>2017-05-26T13:26:22Z</time>
      </trkpt>
      <trkpt lat="45.67364" lon="6.4196">
        <ele>803</ele>
        <time>2017-05-26T13:26:34Z</time>
      </trkpt>
      <trkpt lat="45.67374" lon="6.41937">
        <ele>802</ele>
        <time>2017-05-26T13:26:46Z</time>
      </trkpt>
      <trkpt lat="45.67382" lon="6.41913">
        <ele>838</ele>
        <time>2017-05-26T13:26:58Z</time>
      </trkpt>
      <trkpt lat="45.67395" lon="6.41892">
        <ele>838</ele>
        <time>2017-05-26T13:36:22Z</time>
      </trkpt>
      <trkpt lat="45.67402" lon="6.41857">
        <ele>830</ele>
        <time>2017-05-26T13:36:31Z</time>
      </trkpt>
      <trkpt lat="45.67417" lon="6.41826">
        <ele>867</ele>
        <time>2017-05-26T13:36:40Z</time>
      </trkpt>
      <trkpt lat="45.67434" lon="6.41804">
        <ele>830</ele>
        <time>2017-05-26T13:36:46Z</time>
      </trkpt>
      <trkpt lat="45.6745" lon="6.41783">
        <ele>816</ele>
        <time>2017-05-26T13:36:52Z</time>
      </trkpt>
      <trkpt lat="45.67469" lon="6.4176">
        <ele>837</ele>
        <time>2017-05-26T13:36:58Z</time>
      </trkpt>
      <trkpt lat="45.67485" lon="6.41739">
        <ele>837</ele>
        <time>2017-05-26T13:37:04Z</time>
      </trkpt>
      <trkpt lat="45.67503" lon="6.41731">
        <ele>837</ele>
        <time>2017-05-26T13:37:10Z</time>
      </trkpt>
      <trkpt lat="45.67521" lon="6.41727">
        <ele>837</ele>
        <time>2017-05-26T13:37:19Z</time>
      </trkpt>
      <trkpt lat="45.67539" lon="6.41737">
        <ele>837</ele>
        <time>2017-05-26T13:37:31Z</time>
      </trkpt>
      <trkpt lat="45.67562" lon="6.41745">
        <ele>863</ele>
        <time>2017-05-26T13:37:43Z</time>
      </trkpt>
      <trkpt lat="45.67584" lon="6.41749">
        <ele>853</ele>
        <time>2017-05-26T13:37:55Z</time>
      </trkpt>
      <trkpt lat="45.67606" lon="6.41751">
        <ele>853</ele>
        <time>2017-05-26T13:38:04Z</time>
      </trkpt>
      <trkpt lat="45.67627" lon="6.41752">
        <ele>839</ele>
        <time>2017-05-26T13:38:16Z</time>
      </trkpt>
      <trkpt lat="45.67648" lon="6.41755">
        <ele>839</ele>
        <time>2017-05-26T13:38:28Z</time>
      </trkpt>
      <trkpt lat="45.67667" lon="6.41766">
        <ele>839</ele>
        <time>2017-05-26T13:38:43Z</time>
      </trkpt>
      <trkpt lat="45.67685" lon="6.41773">
        <ele>839</ele>
        <time>2017-05-26T13:38:58Z</time>
      </trkpt>
      <trkpt lat="45.67703" lon="6.41785">
        <ele>839</ele>
        <time>2017-05-26T13:39:10Z</time>
      </trkpt>
      <trkpt lat="45.67726" lon="6.41798">
        <ele>889</ele>
        <time>2017-05-26T13:39:25Z</time>
      </trkpt>
      <trkpt lat="45.67747" lon="6.41799">
        <ele>889</ele>
        <time>2017-05-26T13:39:43Z</time>
      </trkpt>
      <trkpt lat="45.67768" lon="6.41796">
        <ele>889</ele>
        <time>2017-05-26T13:40:01Z</time>
      </trkpt>
      <trkpt lat="45.67789" lon="6.41793">
        <ele>912</ele>
        <time>2017-05-26T13:40:19Z</time>
      </trkpt>
      <trkpt lat="45.67808" lon="6.41798">
        <ele>887</ele>
        <time>2017-05-26T13:40:34Z</time>
      </trkpt>
      <trkpt lat="45.67839" lon="6.41806">
        <ele>887</ele>
        <time>2017-05-26T13:40:43Z</time>
      </trkpt>
      <trkpt lat="45.67876" lon="6.41822">
        <ele>868</ele>
        <time>2017-05-26T13:40:49Z</time>
      </trkpt>
      <trkpt lat="45.67894" lon="6.41824">
        <ele>868</ele>
        <time>2017-05-26T13:40:52Z</time>
      </trkpt>
      <trkpt lat="45.67913" lon="6.41815">
        <ele>868</ele>
        <time>2017-05-26T13:41:04Z</time>
      </trkpt>
      <trkpt lat="45.67932" lon="6.4182">
        <ele>868</ele>
        <time>2017-05-26T13:41:13Z</time>
      </trkpt>
      <trkpt lat="45.67951" lon="6.41831">
        <ele>868</ele>
        <time>2017-05-26T13:41:25Z</time>
      </trkpt>
      <trkpt lat="45.6797" lon="6.41849">
        <ele>854</ele>
        <time>2017-05-26T13:41:34Z</time>
      </trkpt>
      <trkpt lat="45.67988" lon="6.41867">
        <ele>854</ele>
        <time>2017-05-26T13:41:46Z</time>
      </trkpt>
      <trkpt lat="45.68006" lon="6.41883">
        <ele>876</ele>
        <time>2017-05-26T13:41:58Z</time>
      </trkpt>
      <trkpt lat="45.68015" lon="6.41907">
        <ele>876</ele>
        <time>2017-05-26T13:42:10Z</time>
      </trkpt>
      <trkpt lat="45.68017" lon="6.41935">
        <ele>876</ele>
        <time>2017-05-26T13:42:22Z</time>
      </trkpt>
      <trkpt lat="45.68036" lon="6.41949">
        <ele>876</ele>
        <time>2017-05-26T13:42:34Z</time>
      </trkpt>
      <trkpt lat="45.68054" lon="6.41954">
        <ele>862</ele>
        <time>2017-05-26T13:42:43Z</time>
      </trkpt>
      <trkpt lat="45.68074" lon="6.41968">
        <ele>878</ele>
        <time>2017-05-26T13:42:55Z</time>
      </trkpt>
      <trkpt lat="45.68089" lon="6.41991">
        <ele>878</ele>
        <time>2017-05-26T13:43:07Z</time>
      </trkpt>
      <trkpt lat="45.68099" lon="6.42013">
        <ele>878</ele>
        <time>2017-05-26T13:43:16Z</time>
      </trkpt>
      <trkpt lat="45.68111" lon="6.42035">
        <ele>878</ele>
        <time>2017-05-26T13:43:25Z</time>
      </trkpt>
      <trkpt lat="45.68123" lon="6.42055">
        <ele>894</ele>
        <time>2017-05-26T13:43:34Z</time>
      </trkpt>
      <trkpt lat="45.68113" lon="6.4208">
        <ele>894</ele>
        <time>2017-05-26T13:43:46Z</time>
      </trkpt>
      <trkpt lat="45.681" lon="6.42059">
        <ele>894</ele>
        <time>2017-05-26T13:43:55Z</time>
      </trkpt>
      <trkpt lat="45.68089" lon="6.42037">
        <ele>878</ele>
        <time>2017-05-26T13:44:04Z</time>
      </trkpt>
      <trkpt lat="45.68077" lon="6.42015">
        <ele>878</ele>
        <time>2017-05-26T13:44:13Z</time>
      </trkpt>
      <trkpt lat="45.68062" lon="6.42">
        <ele>878</ele>
        <time>2017-05-26T13:44:22Z</time>
      </trkpt>
      <trkpt lat="45.68039" lon="6.41997">
        <ele>899</ele>
        <time>2017-05-26T13:44:34Z</time>
      </trkpt>
      <trkpt lat="45.68019" lon="6.4199">
        <ele>899</ele>
        <time>2017-05-26T13:44:49Z</time>
      </trkpt>
      <trkpt lat="45.68002" lon="6.41982">
        <ele>899</ele>
        <time>2017-05-26T13:44:58Z</time>
      </trkpt>
      <trkpt lat="45.67985" lon="6.41968">
        <ele>899</ele>
        <time>2017-05-26T13:45:07Z</time>
      </trkpt>
      <trkpt lat="45.67967" lon="6.41955">
        <ele>876</ele>
        <time>2017-05-26T13:45:13Z</time>
      </trkpt>
      <trkpt lat="45.67951" lon="6.41939">
        <ele>899</ele>
        <time>2017-05-26T13:45:22Z</time>
      </trkpt>
      <trkpt lat="45.67932" lon="6.41921">
        <ele>899</ele>
        <time>2017-05-26T13:45:34Z</time>
      </trkpt>
      <trkpt lat="45.67913" lon="6.419">
        <ele>899</ele>
        <time>2017-05-26T13:45:43Z</time>
      </trkpt>
      <trkpt lat="45.67893" lon="6.419">
        <ele>899</ele>
        <time>2017-05-26T13:45:55Z</time>
      </trkpt>
      <trkpt lat="45.67908" lon="6.41915">
        <ele>899</ele>
        <time>2017-05-26T13:46:07Z</time>
      </trkpt>
      <trkpt lat="45.67926" lon="6.41932">
        <ele>899</ele>
        <time>2017-05-26T13:46:16Z</time>
      </trkpt>
      <trkpt lat="45.67936" lon="6.41957">
        <ele>899</ele>
        <time>2017-05-26T13:46:25Z</time>
      </trkpt>
      <trkpt lat="45.6795" lon="6.41975">
        <ele>935</ele>
        <time>2017-05-26T13:46:34Z</time>
      </trkpt>
      <trkpt lat="45.67959" lon="6.42">
        <ele>899</ele>
        <time>2017-05-26T13:46:46Z</time>
      </trkpt>
      <trkpt lat="45.67976" lon="6.4202">
        <ele>899</ele>
        <time>2017-05-26T13:46:58Z</time>
      </trkpt>
      <trkpt lat="45.67992" lon="6.4204">
        <ele>899</ele>
        <time>2017-05-26T13:47:07Z</time>
      </trkpt>
      <trkpt lat="45.68005" lon="6.42061">
        <ele>924</ele>
        <time>2017-05-26T13:47:16Z</time>
      </trkpt>
      <trkpt lat="45.6802" lon="6.42084">
        <ele>924</ele>
        <time>2017-05-26T13:47:25Z</time>
      </trkpt>
      <trkpt lat="45.68033" lon="6.42107">
        <ele>924</ele>
        <time>2017-05-26T13:47:37Z</time>
      </trkpt>
      <trkpt lat="45.68049" lon="6.42131">
        <ele>921</ele>
        <time>2017-05-26T13:47:49Z</time>
      </trkpt>
      <trkpt lat="45.68061" lon="6.4215">
        <ele>921</ele>
        <time>2017-05-26T13:47:58Z</time>
      </trkpt>
      <trkpt lat="45.68066" lon="6.4218">
        <ele>921</ele>
        <time>2017-05-26T13:48:10Z</time>
      </trkpt>
      <trkpt lat="45.68073" lon="6.42207">
        <ele>921</ele>
        <time>2017-05-26T13:48:19Z</time>
      </trkpt>
      <trkpt lat="45.68086" lon="6.42235">
        <ele>934</ele>
        <time>2017-05-26T13:48:31Z</time>
      </trkpt>
      <trkpt lat="45.68099" lon="6.4226">
        <ele>934</ele>
        <time>2017-05-26T13:48:40Z</time>
      </trkpt>
      <trkpt lat="45.681" lon="6.42288">
        <ele>934</ele>
        <time>2017-05-26T13:48:49Z</time>
      </trkpt>
      <trkpt lat="45.68107" lon="6.42321">
        <ele>954</ele>
        <time>2017-05-26T13:49:01Z</time>
      </trkpt>
      <trkpt lat="45.68111" lon="6.42347">
        <ele>954</ele>
        <time>2017-05-26T13:49:10Z</time>
      </trkpt>
      <trkpt lat="45.68116" lon="6.42372">
        <ele>954</ele>
        <time>2017-05-26T13:49:19Z</time>
      </trkpt>
      <trkpt lat="45.68125" lon="6.42399">
        <ele>930</ele>
        <time>2017-05-26T13:49:31Z</time>
      </trkpt>
      <trkpt lat="45.68134" lon="6.42424">
        <ele>930</ele>
        <time>2017-05-26T13:49:40Z</time>
      </trkpt>
      <trkpt lat="45.68135" lon="6.4245">
        <ele>930</ele>
        <time>2017-05-26T13:49:52Z</time>
      </trkpt>
      <trkpt lat="45.68153" lon="6.42467">
        <ele>961</ele>
        <time>2017-05-26T13:50:01Z</time>
      </trkpt>
      <trkpt lat="45.68131" lon="6.4246">
        <ele>961</ele>
        <time>2017-05-26T13:50:16Z</time>
      </trkpt>
      <trkpt lat="45.68124" lon="6.42435">
        <ele>983</ele>
        <time>2017-05-26T13:50:28Z</time>
      </trkpt>
      <trkpt lat="45.68109" lon="6.42418">
        <ele>983</ele>
        <time>2017-05-26T13:50:37Z</time>
      </trkpt>
      <trkpt lat="45.68098" lon="6.42394">
        <ele>983</ele>
        <time>2017-05-26T13:50:52Z</time>
      </trkpt>
      <trkpt lat="45.68079" lon="6.42367">
        <ele>954</ele>
        <time>2017-05-26T13:51:04Z</time>
      </trkpt>
      <trkpt lat="45.68066" lon="6.42339">
        <ele>954</ele>
        <time>2017-05-26T13:51:13Z</time>
      </trkpt>
      <trkpt lat="45.68053" lon="6.42314">
        <ele>954</ele>
        <time>2017-05-26T13:51:25Z</time>
      </trkpt>
      <trkpt lat="45.68037" lon="6.42298">
        <ele>987</ele>
        <time>2017-05-26T13:51:37Z</time>
      </trkpt>
      <trkpt lat="45.68022" lon="6.42283">
        <ele>971</ele>
        <time>2017-05-26T13:51:46Z</time>
      </trkpt>
      <trkpt lat="45.68006" lon="6.42264">
        <ele>971</ele>
        <time>2017-05-26T13:51:58Z</time>
      </trkpt>
      <trkpt lat="45.67998" lon="6.42236">
        <ele>971</ele>
        <time>2017-05-26T13:52:10Z</time>
      </trkpt>
      <trkpt lat="45.67986" lon="6.42211">
        <ele>971</ele>
        <time>2017-05-26T13:52:19Z</time>
      </trkpt>
      <trkpt lat="45.67965" lon="6.42207">
        <ele>950</ele>
        <time>2017-05-26T13:52:31Z</time>
      </trkpt>
      <trkpt lat="45.67945" lon="6.42203">
        <ele>982</ele>
        <time>2017-05-26T13:52:46Z</time>
      </trkpt>
      <trkpt lat="45.67929" lon="6.4218">
        <ele>982</ele>
        <time>2017-05-26T13:52:58Z</time>
      </trkpt>
      <trkpt lat="45.67918" lon="6.42156">
        <ele>982</ele>
        <time>2017-05-26T13:53:07Z</time>
      </trkpt>
      <trkpt lat="45.67909" lon="6.42129">
        <ele>982</ele>
        <time>2017-05-26T13:53:22Z</time>
      </trkpt>
      <trkpt lat="45.67891" lon="6.42121">
        <ele>965</ele>
        <time>2017-05-26T13:53:37Z</time>
      </trkpt>
      <trkpt lat="45.67873" lon="6.42109">
        <ele>994</ele>
        <time>2017-05-26T13:53:46Z</time>
      </trkpt>
      <trkpt lat="45.6785" lon="6.42102">
        <ele>994</ele>
        <time>2017-05-26T13:53:58Z</time>
      </trkpt>
      <trkpt lat="45.67827" lon="6.42099">
        <ele>994</ele>
        <time>2017-05-26T13:54:10Z</time>
      </trkpt>
      <trkpt lat="45.67811" lon="6.42085">
        <ele>994</ele>
        <time>2017-05-26T13:54:19Z</time>
      </trkpt>
      <trkpt lat="45.67801" lon="6.42055">
        <ele>994</ele>
        <time>2017-05-26T13:54:31Z</time>
      </trkpt>
      <trkpt lat="45.67786" lon="6.42034">
        <ele>984</ele>
        <time>2017-05-26T13:54:43Z</time>
      </trkpt>
      <trkpt lat="45.67766" lon="6.42043">
        <ele>1007</ele>
        <time>2017-05-26T13:54:58Z</time>
      </trkpt>
      <trkpt lat="45.67784" lon="6.42058">
        <ele>1007</ele>
        <time>2017-05-26T13:55:13Z</time>
      </trkpt>
      <trkpt lat="45.67796" lon="6.42083">
        <ele>994</ele>
        <time>2017-05-26T13:55:25Z</time>
      </trkpt>
      <trkpt lat="45.67795" lon="6.42113">
        <ele>994</ele>
        <time>2017-05-26T13:55:37Z</time>
      </trkpt>
      <trkpt lat="45.67813" lon="6.42127">
        <ele>1018</ele>
        <time>2017-05-26T13:55:49Z</time>
      </trkpt>
      <trkpt lat="45.67835" lon="6.42128">
        <ele>1018</ele>
        <time>2017-05-26T13:56:04Z</time>
      </trkpt>
      <trkpt lat="45.67856" lon="6.42138">
        <ele>1018</ele>
        <time>2017-05-26T13:56:19Z</time>
      </trkpt>
      <trkpt lat="45.67873" lon="6.42161">
        <ele>1018</ele>
        <time>2017-05-26T13:56:31Z</time>
      </trkpt>
      <trkpt lat="45.67868" lon="6.42191">
        <ele>1018</ele>
        <time>2017-05-26T13:56:43Z</time>
      </trkpt>
      <trkpt lat="45.67864" lon="6.42217">
        <ele>1029</ele>
        <time>2017-05-26T13:56:55Z</time>
      </trkpt>
      <trkpt lat="45.67853" lon="6.42245">
        <ele>1029</ele>
        <time>2017-05-26T13:57:07Z</time>
      </trkpt>
      <trkpt lat="45.67841" lon="6.42264">
        <ele>1029</ele>
        <time>2017-05-26T13:57:19Z</time>
      </trkpt>
      <trkpt lat="45.67835" lon="6.42298">
        <ele>1038</ele>
        <time>2017-05-26T13:57:31Z</time>
      </trkpt>
      <trkpt lat="45.67836" lon="6.42324">
        <ele>1038</ele>
        <time>2017-05-26T13:57:46Z</time>
      </trkpt>
      <trkpt lat="45.67841" lon="6.42355">
        <ele>1038</ele>
        <time>2017-05-26T13:58:04Z</time>
      </trkpt>
      <trkpt lat="45.67819" lon="6.42349">
        <ele>1038</ele>
        <time>2017-05-26T13:58:10Z</time>
      </trkpt>
      <trkpt lat="45.67812" lon="6.42323">
        <ele>1038</ele>
        <time>2017-05-26T13:58:28Z</time>
      </trkpt>
      <trkpt lat="45.67818" lon="6.42295">
        <ele>1038</ele>
        <time>2017-05-26T13:58:40Z</time>
      </trkpt>
      <trkpt lat="45.67819" lon="6.42267">
        <ele>1029</ele>
        <time>2017-05-26T13:58:52Z</time>
      </trkpt>
      <trkpt lat="45.6781" lon="6.42242">
        <ele>1029</ele>
        <time>2017-05-26T13:59:07Z</time>
      </trkpt>
      <trkpt lat="45.67789" lon="6.42248">
        <ele>1032</ele>
        <time>2017-05-26T13:59:25Z</time>
      </trkpt>
      <trkpt lat="45.6777" lon="6.42274">
        <ele>1032</ele>
        <time>2017-05-26T13:59:40Z</time>
      </trkpt>
      <trkpt lat="45.67766" lon="6.42302">
        <ele>1092</ele>
        <time>2017-05-26T13:59:58Z</time>
      </trkpt>
      <trkpt lat="45.67772" lon="6.42328">
        <ele>1050</ele>
        <time>2017-05-26T14:00:10Z</time>
      </trkpt>
      <trkpt lat="45.67782" lon="6.42352">
        <ele>1050</ele>
        <time>2017-05-26T14:00:22Z</time>
      </trkpt>
      <trkpt lat="45.67795" lon="6.42378">
        <ele>1058</ele>
        <time>2017-05-26T14:00:34Z</time>
      </trkpt>
      <trkpt lat="45.6781" lon="6.42397">
        <ele>1058</ele>
        <time>2017-05-26T14:00:49Z</time>
      </trkpt>
      <trkpt lat="45.67831" lon="6.42415">
        <ele>1058</ele>
        <time>2017-05-26T14:01:04Z</time>
      </trkpt>
      <trkpt lat="45.67848" lon="6.42436">
        <ele>1058</ele>
        <time>2017-05-26T14:01:16Z</time>
      </trkpt>
      <trkpt lat="45.67866" lon="6.42459">
        <ele>1078</ele>
        <time>2017-05-26T14:01:31Z</time>
      </trkpt>
      <trkpt lat="45.67828" lon="6.42458">
        <ele>1058</ele>
        <time>2017-05-26T14:02:02Z</time>
      </trkpt>
      <trkpt lat="45.67807" lon="6.4245">
        <ele>1058</ele>
        <time>2017-05-26T14:02:15Z</time>
      </trkpt>
      <trkpt lat="45.67788" lon="6.42445">
        <ele>1065</ele>
        <time>2017-05-26T14:02:30Z</time>
      </trkpt>
      <trkpt lat="45.6777" lon="6.42437">
        <ele>1065</ele>
        <time>2017-05-26T14:02:42Z</time>
      </trkpt>
      <trkpt lat="45.67753" lon="6.42425">
        <ele>1065</ele>
        <time>2017-05-26T14:02:51Z</time>
      </trkpt>
      <trkpt lat="45.67733" lon="6.42431">
        <ele>1065</ele>
        <time>2017-05-26T14:03:06Z</time>
      </trkpt>
      <trkpt lat="45.67726" lon="6.42459">
        <ele>1074</ele>
        <time>2017-05-26T14:03:21Z</time>
      </trkpt>
      <trkpt lat="45.67726" lon="6.42487">
        <ele>1074</ele>
        <time>2017-05-26T14:03:33Z</time>
      </trkpt>
      <trkpt lat="45.6774" lon="6.42505">
        <ele>1074</ele>
        <time>2017-05-26T14:03:45Z</time>
      </trkpt>
      <trkpt lat="45.67759" lon="6.42501">
        <ele>1074</ele>
        <time>2017-05-26T14:03:57Z</time>
      </trkpt>
      <trkpt lat="45.67779" lon="6.42496">
        <ele>1074</ele>
        <time>2017-05-26T14:04:09Z</time>
      </trkpt>
      <trkpt lat="45.67797" lon="6.42503">
        <ele>1078</ele>
        <time>2017-05-26T14:04:21Z</time>
      </trkpt>
      <trkpt lat="45.67814" lon="6.4252">
        <ele>1078</ele>
        <time>2017-05-26T14:04:33Z</time>
      </trkpt>
      <trkpt lat="45.67833" lon="6.42534">
        <ele>1078</ele>
        <time>2017-05-26T14:04:45Z</time>
      </trkpt>
      <trkpt lat="45.67848" lon="6.42549">
        <ele>1100</ele>
        <time>2017-05-26T14:04:57Z</time>
      </trkpt>
      <trkpt lat="45.67829" lon="6.42557">
        <ele>1100</ele>
        <time>2017-05-26T14:05:21Z</time>
      </trkpt>
      <trkpt lat="45.6781" lon="6.42549">
        <ele>1100</ele>
        <time>2017-05-26T14:05:30Z</time>
      </trkpt>
      <trkpt lat="45.67792" lon="6.42561">
        <ele>1100</ele>
        <time>2017-05-26T14:05:42Z</time>
      </trkpt>
      <trkpt lat="45.67779" lon="6.42583">
        <ele>1081</ele>
        <time>2017-05-26T14:05:54Z</time>
      </trkpt>
      <trkpt lat="45.67764" lon="6.42603">
        <ele>1081</ele>
        <time>2017-05-26T14:06:06Z</time>
      </trkpt>
      <trkpt lat="45.67753" lon="6.42627">
        <ele>1101</ele>
        <time>2017-05-26T14:06:18Z</time>
      </trkpt>
      <trkpt lat="45.67768" lon="6.42644">
        <ele>1101</ele>
        <time>2017-05-26T14:06:30Z</time>
      </trkpt>
      <trkpt lat="45.67783" lon="6.42626">
        <ele>1101</ele>
        <time>2017-05-26T14:06:39Z</time>
      </trkpt>
      <trkpt lat="45.67801" lon="6.42609">
        <ele>1100</ele>
        <time>2017-05-26T14:06:51Z</time>
      </trkpt>
      <trkpt lat="45.67822" lon="6.42606">
        <ele>1100</ele>
        <time>2017-05-26T14:07:03Z</time>
      </trkpt>
      <trkpt lat="45.67842" lon="6.42609">
        <ele>1100</ele>
        <time>2017-05-26T14:07:15Z</time>
      </trkpt>
      <trkpt lat="45.67899" lon="6.42614">
        <ele>1092</ele>
        <time>2017-05-26T14:07:39Z</time>
      </trkpt>
      <trkpt lat="45.67914" lon="6.42638">
        <ele>1119</ele>
        <time>2017-05-26T14:07:51Z</time>
      </trkpt>
      <trkpt lat="45.67924" lon="6.42659">
        <ele>1119</ele>
        <time>2017-05-26T14:08:00Z</time>
      </trkpt>
      <trkpt lat="45.67943" lon="6.42679">
        <ele>1119</ele>
        <time>2017-05-26T14:08:12Z</time>
      </trkpt>
      <trkpt lat="45.67958" lon="6.42701">
        <ele>1119</ele>
        <time>2017-05-26T14:08:24Z</time>
      </trkpt>
      <trkpt lat="45.67971" lon="6.42725">
        <ele>1111</ele>
        <time>2017-05-26T14:08:36Z</time>
      </trkpt>
      <trkpt lat="45.6797" lon="6.42754">
        <ele>1111</ele>
        <time>2017-05-26T14:08:48Z</time>
      </trkpt>
      <trkpt lat="45.6797" lon="6.42789">
        <ele>1111</ele>
        <time>2017-05-26T14:09:03Z</time>
      </trkpt>
      <trkpt lat="45.67971" lon="6.42817">
        <ele>1117</ele>
        <time>2017-05-26T14:09:18Z</time>
      </trkpt>
      <trkpt lat="45.67961" lon="6.4284">
        <ele>1117</ele>
        <time>2017-05-26T14:09:30Z</time>
      </trkpt>
      <trkpt lat="45.67945" lon="6.42854">
        <ele>1133</ele>
        <time>2017-05-26T14:09:45Z</time>
      </trkpt>
      <trkpt lat="45.67925" lon="6.42863">
        <ele>1133</ele>
        <time>2017-05-26T14:09:57Z</time>
      </trkpt>
      <trkpt lat="45.6791" lon="6.42883">
        <ele>1132</ele>
        <time>2017-05-26T14:10:09Z</time>
      </trkpt>
      <trkpt lat="45.67928" lon="6.42894">
        <ele>1132</ele>
        <time>2017-05-26T14:10:27Z</time>
      </trkpt>
      <trkpt lat="45.67907" lon="6.429">
        <ele>1132</ele>
        <time>2017-05-26T14:19:50Z</time>
      </trkpt>
      <trkpt lat="45.67899" lon="6.42928">
        <ele>1132</ele>
        <time>2017-05-26T14:20:02Z</time>
      </trkpt>
      <trkpt lat="45.67897" lon="6.42955">
        <ele>1132</ele>
        <time>2017-05-26T14:20:14Z</time>
      </trkpt>
      <trkpt lat="45.67896" lon="6.42984">
        <ele>1134</ele>
        <time>2017-05-26T14:20:26Z</time>
      </trkpt>
      <trkpt lat="45.67895" lon="6.43012">
        <ele>1134</ele>
        <time>2017-05-26T14:20:38Z</time>
      </trkpt>
      <trkpt lat="45.67898" lon="6.43039">
        <ele>1134</ele>
        <time>2017-05-26T14:20:50Z</time>
      </trkpt>
      <trkpt lat="45.67907" lon="6.43063">
        <ele>1146</ele>
        <time>2017-05-26T14:21:03Z</time>
      </trkpt>
      <trkpt lat="45.67927" lon="6.43075">
        <ele>1146</ele>
        <time>2017-05-26T14:21:18Z</time>
      </trkpt>
      <trkpt lat="45.67946" lon="6.43082">
        <ele>1146</ele>
        <time>2017-05-26T14:21:33Z</time>
      </trkpt>
      <trkpt lat="45.67964" lon="6.4308">
        <ele>1154</ele>
        <time>2017-05-26T14:21:48Z</time>
      </trkpt>
      <trkpt lat="45.67988" lon="6.43074">
        <ele>1154</ele>
        <time>2017-05-26T14:22:06Z</time>
      </trkpt>
      <trkpt lat="45.68007" lon="6.43066">
        <ele>1154</ele>
        <time>2017-05-26T14:22:18Z</time>
      </trkpt>
      <trkpt lat="45.68031" lon="6.4306">
        <ele>1154</ele>
        <time>2017-05-26T14:22:34Z</time>
      </trkpt>
      <trkpt lat="45.68048" lon="6.43053">
        <ele>1167</ele>
        <time>2017-05-26T14:22:47Z</time>
      </trkpt>
      <trkpt lat="45.68068" lon="6.43058">
        <ele>1167</ele>
        <time>2017-05-26T14:22:59Z</time>
      </trkpt>
      <trkpt lat="45.68086" lon="6.43072">
        <ele>1167</ele>
        <time>2017-05-26T14:23:11Z</time>
      </trkpt>
      <trkpt lat="45.68071" lon="6.43093">
        <ele>1167</ele>
        <time>2017-05-26T14:23:32Z</time>
      </trkpt>
      <trkpt lat="45.68052" lon="6.43099">
        <ele>1167</ele>
        <time>2017-05-26T14:23:44Z</time>
      </trkpt>
      <trkpt lat="45.68036" lon="6.43117">
        <ele>1154</ele>
        <time>2017-05-26T14:24:02Z</time>
      </trkpt>
      <trkpt lat="45.68022" lon="6.43134">
        <ele>1174</ele>
        <time>2017-05-26T14:24:14Z</time>
      </trkpt>
      <trkpt lat="45.68004" lon="6.4315">
        <ele>1174</ele>
        <time>2017-05-26T14:24:26Z</time>
      </trkpt>
      <trkpt lat="45.67985" lon="6.43166">
        <ele>1174</ele>
        <time>2017-05-26T14:24:38Z</time>
      </trkpt>
      <trkpt lat="45.67972" lon="6.43186">
        <ele>1174</ele>
        <time>2017-05-26T14:24:50Z</time>
      </trkpt>
      <trkpt lat="45.6796" lon="6.4321">
        <ele>1202</ele>
        <time>2017-05-26T14:25:02Z</time>
      </trkpt>
      <trkpt lat="45.67979" lon="6.43209">
        <ele>1202</ele>
        <time>2017-05-26T14:25:23Z</time>
      </trkpt>
      <trkpt lat="45.67996" lon="6.43194">
        <ele>1174</ele>
        <time>2017-05-26T14:25:38Z</time>
      </trkpt>
      <trkpt lat="45.68014" lon="6.43184">
        <ele>1174</ele>
        <time>2017-05-26T14:25:50Z</time>
      </trkpt>
      <trkpt lat="45.68035" lon="6.43176">
        <ele>1174</ele>
        <time>2017-05-26T14:26:05Z</time>
      </trkpt>
      <trkpt lat="45.68025" lon="6.43199">
        <ele>1174</ele>
        <time>2017-05-26T14:26:32Z</time>
      </trkpt>
      <trkpt lat="45.68012" lon="6.43221">
        <ele>1202</ele>
        <time>2017-05-26T14:26:47Z</time>
      </trkpt>
      <trkpt lat="45.67996" lon="6.43244">
        <ele>1202</ele>
        <time>2017-05-26T14:26:59Z</time>
      </trkpt>
      <trkpt lat="45.67982" lon="6.43261">
        <ele>1202</ele>
        <time>2017-05-26T14:27:11Z</time>
      </trkpt>
      <trkpt lat="45.68012" lon="6.43258">
        <ele>1202</ele>
        <time>2017-05-26T14:27:42Z</time>
      </trkpt>
      <trkpt lat="45.68025" lon="6.43239">
        <ele>1202</ele>
        <time>2017-05-26T14:27:51Z</time>
      </trkpt>
      <trkpt lat="45.68043" lon="6.43232">
        <ele>1221</ele>
        <time>2017-05-26T14:28:03Z</time>
      </trkpt>
      <trkpt lat="45.68061" lon="6.43227">
        <ele>1221</ele>
        <time>2017-05-26T14:28:15Z</time>
      </trkpt>
      <trkpt lat="45.6808" lon="6.43233">
        <ele>1221</ele>
        <time>2017-05-26T14:28:27Z</time>
      </trkpt>
      <trkpt lat="45.68098" lon="6.43233">
        <ele>1221</ele>
        <time>2017-05-26T14:28:39Z</time>
      </trkpt>
      <trkpt lat="45.68117" lon="6.43244">
        <ele>1221</ele>
        <time>2017-05-26T14:28:54Z</time>
      </trkpt>
      <trkpt lat="45.68136" lon="6.43257">
        <ele>1217</ele>
        <time>2017-05-26T14:29:06Z</time>
      </trkpt>
      <trkpt lat="45.68156" lon="6.43266">
        <ele>1217</ele>
        <time>2017-05-26T14:29:21Z</time>
      </trkpt>
      <trkpt lat="45.68173" lon="6.43277">
        <ele>1217</ele>
        <time>2017-05-26T14:29:33Z</time>
      </trkpt>
      <trkpt lat="45.68189" lon="6.4329">
        <ele>1217</ele>
        <time>2017-05-26T14:29:45Z</time>
      </trkpt>
      <trkpt lat="45.68202" lon="6.4331">
        <ele>1240</ele>
        <time>2017-05-26T14:29:57Z</time>
      </trkpt>
      <trkpt lat="45.68217" lon="6.43324">
        <ele>1231</ele>
        <time>2017-05-26T14:30:09Z</time>
      </trkpt>
      <trkpt lat="45.68235" lon="6.43333">
        <ele>1231</ele>
        <time>2017-05-26T14:30:24Z</time>
      </trkpt>
      <trkpt lat="45.68256" lon="6.43339">
        <ele>1231</ele>
        <time>2017-05-26T14:30:39Z</time>
      </trkpt>
      <trkpt lat="45.68276" lon="6.43343">
        <ele>1231</ele>
        <time>2017-05-26T14:30:54Z</time>
      </trkpt>
      <trkpt lat="45.68296" lon="6.43346">
        <ele>1228</ele>
        <time>2017-05-26T14:31:06Z</time>
      </trkpt>
      <trkpt lat="45.68283" lon="6.43371">
        <ele>1231</ele>
        <time>2017-05-26T14:31:27Z</time>
      </trkpt>
      <trkpt lat="45.68264" lon="6.4337">
        <ele>1231</ele>
        <time>2017-05-26T14:31:39Z</time>
      </trkpt>
      <trkpt lat="45.68245" lon="6.43371">
        <ele>1231</ele>
        <time>2017-05-26T14:31:51Z</time>
      </trkpt>
      <trkpt lat="45.68224" lon="6.43371">
        <ele>1231</ele>
        <time>2017-05-26T14:32:03Z</time>
      </trkpt>
      <trkpt lat="45.68202" lon="6.43375">
        <ele>1269</ele>
        <time>2017-05-26T14:32:18Z</time>
      </trkpt>
      <trkpt lat="45.68167" lon="6.43384">
        <ele>1269</ele>
        <time>2017-05-26T14:32:41Z</time>
      </trkpt>
      <trkpt lat="45.68149" lon="6.43387">
        <ele>1269</ele>
        <time>2017-05-26T14:32:53Z</time>
      </trkpt>
      <trkpt lat="45.68126" lon="6.43392">
        <ele>1290</ele>
        <time>2017-05-26T14:33:08Z</time>
      </trkpt>
      <trkpt lat="45.68108" lon="6.43392">
        <ele>1272</ele>
        <time>2017-05-26T14:33:20Z</time>
      </trkpt>
      <trkpt lat="45.68089" lon="6.43393">
        <ele>1272</ele>
        <time>2017-05-26T14:33:32Z</time>
      </trkpt>
      <trkpt lat="45.68067" lon="6.43394">
        <ele>1272</ele>
        <time>2017-05-26T14:33:47Z</time>
      </trkpt>
      <trkpt lat="45.6805" lon="6.43405">
        <ele>1272</ele>
        <time>2017-05-26T14:34:02Z</time>
      </trkpt>
      <trkpt lat="45.68068" lon="6.43414">
        <ele>1272</ele>
        <time>2017-05-26T14:34:23Z</time>
      </trkpt>
      <trkpt lat="45.68088" lon="6.43417">
        <ele>1272</ele>
        <time>2017-05-26T14:34:35Z</time>
      </trkpt>
      <trkpt lat="45.68108" lon="6.43415">
        <ele>1272</ele>
        <time>2017-05-26T14:34:47Z</time>
      </trkpt>
      <trkpt lat="45.68125" lon="6.43425">
        <ele>1272</ele>
        <time>2017-05-26T14:34:59Z</time>
      </trkpt>
      <trkpt lat="45.68106" lon="6.43438">
        <ele>1272</ele>
        <time>2017-05-26T14:35:14Z</time>
      </trkpt>
      <trkpt lat="45.68091" lon="6.43454">
        <ele>1272</ele>
        <time>2017-05-26T14:35:29Z</time>
      </trkpt>
      <trkpt lat="45.68074" lon="6.43467">
        <ele>1292</ele>
        <time>2017-05-26T14:35:44Z</time>
      </trkpt>
      <trkpt lat="45.68064" lon="6.4349">
        <ele>1292</ele>
        <time>2017-05-26T14:35:59Z</time>
      </trkpt>
      <trkpt lat="45.68051" lon="6.4351">
        <ele>1335</ele>
        <time>2017-05-26T14:36:11Z</time>
      </trkpt>
      <trkpt lat="45.68069" lon="6.43497">
        <ele>1292</ele>
        <time>2017-05-26T14:36:47Z</time>
      </trkpt>
      <trkpt lat="45.68084" lon="6.43482">
        <ele>1292</ele>
        <time>2017-05-26T14:36:59Z</time>
      </trkpt>
      <trkpt lat="45.68104" lon="6.43471">
        <ele>1292</ele>
        <time>2017-05-26T14:37:14Z</time>
      </trkpt>
      <trkpt lat="45.68123" lon="6.43463">
        <ele>1292</ele>
        <time>2017-05-26T14:37:29Z</time>
      </trkpt>
      <trkpt lat="45.68156" lon="6.43469">
        <ele>1306</ele>
        <time>2017-05-26T14:37:50Z</time>
      </trkpt>
      <trkpt lat="45.68162" lon="6.43497">
        <ele>1306</ele>
        <time>2017-05-26T14:38:02Z</time>
      </trkpt>
      <trkpt lat="45.68181" lon="6.43498">
        <ele>1306</ele>
        <time>2017-05-26T14:38:26Z</time>
      </trkpt>
      <trkpt lat="45.68201" lon="6.43502">
        <ele>1357</ele>
        <time>2017-05-26T14:38:47Z</time>
      </trkpt>
      <trkpt lat="45.68222" lon="6.43509">
        <ele>1304</ele>
        <time>2017-05-26T14:40:17Z</time>
      </trkpt>
      <trkpt lat="45.68243" lon="6.43518">
        <ele>1304</ele>
        <time>2017-05-26T14:40:29Z</time>
      </trkpt>
      <trkpt lat="45.68253" lon="6.43539">
        <ele>1304</ele>
        <time>2017-05-26T14:40:38Z</time>
      </trkpt>
      <trkpt lat="45.68273" lon="6.43549">
        <ele>1327</ele>
        <time>2017-05-26T14:40:56Z</time>
      </trkpt>
      <trkpt lat="45.6829" lon="6.43555">
        <ele>1327</ele>
        <time>2017-05-26T14:41:02Z</time>
      </trkpt>
      <trkpt lat="45.68391" lon="6.43598">
        <ele>1303</ele>
        <time>2017-05-26T14:48:08Z</time>
      </trkpt>
      <trkpt lat="45.68349" lon="6.43581">
        <ele>1323</ele>
        <time>2017-05-26T14:48:13Z</time>
      </trkpt>
      <trkpt lat="45.6833" lon="6.43566">
        <ele>1323</ele>
        <time>2017-05-26T14:48:17Z</time>
      </trkpt>
      <trkpt lat="45.68311" lon="6.43555">
        <ele>1323</ele>
        <time>2017-05-26T14:52:08Z</time>
      </trkpt>
      <trkpt lat="45.68271" lon="6.43557">
        <ele>1327</ele>
        <time>2017-05-26T14:52:48Z</time>
      </trkpt>
      <trkpt lat="45.68253" lon="6.43568">
        <ele>1327</ele>
        <time>2017-05-26T14:53:13Z</time>
      </trkpt>
      <trkpt lat="45.68272" lon="6.43579">
        <ele>1327</ele>
        <time>2017-05-26T14:54:04Z</time>
      </trkpt>
      <trkpt lat="45.6829" lon="6.43591">
        <ele>1327</ele>
        <time>2017-05-26T14:54:25Z</time>
      </trkpt>
      <trkpt lat="45.68306" lon="6.43613">
        <ele>1323</ele>
        <time>2017-05-26T14:54:40Z</time>
      </trkpt>
      <trkpt lat="45.68316" lon="6.43636">
        <ele>1346</ele>
        <time>2017-05-26T14:54:58Z</time>
      </trkpt>
      <trkpt lat="45.68297" lon="6.43643">
        <ele>1346</ele>
        <time>2017-05-26T14:55:16Z</time>
      </trkpt>
      <trkpt lat="45.68278" lon="6.43634">
        <ele>1353</ele>
        <time>2017-05-26T14:55:34Z</time>
      </trkpt>
      <trkpt lat="45.68257" lon="6.43636">
        <ele>1353</ele>
        <time>2017-05-26T14:55:52Z</time>
      </trkpt>
      <trkpt lat="45.68236" lon="6.4364">
        <ele>1353</ele>
        <time>2017-05-26T14:56:13Z</time>
      </trkpt>
      <trkpt lat="45.68251" lon="6.43655">
        <ele>1353</ele>
        <time>2017-05-26T14:57:10Z</time>
      </trkpt>
      <trkpt lat="45.68271" lon="6.43657">
        <ele>1353</ele>
        <time>2017-05-26T14:57:31Z</time>
      </trkpt>
      <trkpt lat="45.68283" lon="6.4368">
        <ele>1353</ele>
        <time>2017-05-26T14:57:46Z</time>
      </trkpt>
      <trkpt lat="45.68265" lon="6.43688">
        <ele>1353</ele>
        <time>2017-05-26T14:58:05Z</time>
      </trkpt>
      <trkpt lat="45.68247" lon="6.43692">
        <ele>1353</ele>
        <time>2017-05-26T14:58:20Z</time>
      </trkpt>
      <trkpt lat="45.68228" lon="6.43699">
        <ele>1353</ele>
        <time>2017-05-26T14:58:41Z</time>
      </trkpt>
      <trkpt lat="45.68215" lon="6.43719">
        <ele>1373</ele>
        <time>2017-05-26T14:58:59Z</time>
      </trkpt>
      <trkpt lat="45.68201" lon="6.43736">
        <ele>1371</ele>
        <time>2017-05-26T14:59:17Z</time>
      </trkpt>
      <trkpt lat="45.68185" lon="6.43753">
        <ele>1371</ele>
        <time>2017-05-26T14:59:35Z</time>
      </trkpt>
      <trkpt lat="45.68174" lon="6.43778">
        <ele>1371</ele>
        <time>2017-05-26T14:59:56Z</time>
      </trkpt>
      <trkpt lat="45.68165" lon="6.43802">
        <ele>1397</ele>
        <time>2017-05-26T15:00:17Z</time>
      </trkpt>
      <trkpt lat="45.68144" lon="6.43811">
        <ele>1397</ele>
        <time>2017-05-26T15:00:41Z</time>
      </trkpt>
      <trkpt lat="45.68124" lon="6.43816">
        <ele>1390</ele>
        <time>2017-05-26T15:00:59Z</time>
      </trkpt>
      <trkpt lat="45.68108" lon="6.43833">
        <ele>1390</ele>
        <time>2017-05-26T15:01:20Z</time>
      </trkpt>
      <trkpt lat="45.68089" lon="6.43842">
        <ele>1390</ele>
        <time>2017-05-26T15:01:41Z</time>
      </trkpt>
      <trkpt lat="45.68073" lon="6.43857">
        <ele>1390</ele>
        <time>2017-05-26T15:02:05Z</time>
      </trkpt>
      <trkpt lat="45.6806" lon="6.43876">
        <ele>1417</ele>
        <time>2017-05-26T15:02:23Z</time>
      </trkpt>
      <trkpt lat="45.6804" lon="6.43918">
        <ele>1403</ele>
        <time>2017-05-26T15:02:53Z</time>
      </trkpt>
      <trkpt lat="45.68042" lon="6.43945">
        <ele>1403</ele>
        <time>2017-05-26T15:03:17Z</time>
      </trkpt>
      <trkpt lat="45.68061" lon="6.43938">
        <ele>1417</ele>
        <time>2017-05-26T15:04:11Z</time>
      </trkpt>
      <trkpt lat="45.68079" lon="6.43917">
        <ele>1417</ele>
        <time>2017-05-26T15:04:35Z</time>
      </trkpt>
      <trkpt lat="45.68096" lon="6.43923">
        <ele>1417</ele>
        <time>2017-05-26T15:04:50Z</time>
      </trkpt>
      <trkpt lat="45.68115" lon="6.43919">
        <ele>1417</ele>
        <time>2017-05-26T15:05:08Z</time>
      </trkpt>
      <trkpt lat="45.68109" lon="6.43944">
        <ele>1417</ele>
        <time>2017-05-26T15:05:35Z</time>
      </trkpt>
      <trkpt lat="45.68098" lon="6.43966">
        <ele>1446</ele>
        <time>2017-05-26T15:05:53Z</time>
      </trkpt>
      <trkpt lat="45.68086" lon="6.43985">
        <ele>1446</ele>
        <time>2017-05-26T15:06:11Z</time>
      </trkpt>
      <trkpt lat="45.68105" lon="6.43973">
        <ele>1446</ele>
        <time>2017-05-26T15:06:41Z</time>
      </trkpt>
      <trkpt lat="45.68123" lon="6.43977">
        <ele>1446</ele>
        <time>2017-05-26T15:07:02Z</time>
      </trkpt>
      <trkpt lat="45.68139" lon="6.4399">
        <ele>1492</ele>
        <time>2017-05-26T15:08:37Z</time>
      </trkpt>
      <trkpt lat="45.68156" lon="6.44011">
        <ele>1442</ele>
        <time>2017-05-26T15:09:01Z</time>
      </trkpt>
      <trkpt lat="45.68174" lon="6.44021">
        <ele>1496</ele>
        <time>2017-05-26T15:09:19Z</time>
      </trkpt>
      <trkpt lat="45.6819" lon="6.44033">
        <ele>1442</ele>
        <time>2017-05-26T15:09:34Z</time>
      </trkpt>
      <trkpt lat="45.682" lon="6.44058">
        <ele>1462</ele>
        <time>2017-05-26T15:09:52Z</time>
      </trkpt>
      <trkpt lat="45.68213" lon="6.44076">
        <ele>1452</ele>
        <time>2017-05-26T15:10:16Z</time>
      </trkpt>
      <trkpt lat="45.68232" lon="6.44087">
        <ele>1452</ele>
        <time>2017-05-26T15:10:37Z</time>
      </trkpt>
      <trkpt lat="45.6825" lon="6.44102">
        <ele>1452</ele>
        <time>2017-05-26T15:10:55Z</time>
      </trkpt>
      <trkpt lat="45.68268" lon="6.44112">
        <ele>1452</ele>
        <time>2017-05-26T15:11:13Z</time>
      </trkpt>
      <trkpt lat="45.6826" lon="6.44137">
        <ele>1482</ele>
        <time>2017-05-26T15:11:46Z</time>
      </trkpt>
      <trkpt lat="45.68241" lon="6.44137">
        <ele>1482</ele>
        <time>2017-05-26T15:12:04Z</time>
      </trkpt>
      <trkpt lat="45.68222" lon="6.44139">
        <ele>1482</ele>
        <time>2017-05-26T15:12:22Z</time>
      </trkpt>
      <trkpt lat="45.68202" lon="6.4414">
        <ele>1505</ele>
        <time>2017-05-26T15:12:41Z</time>
      </trkpt>
      <trkpt lat="45.68181" lon="6.44142">
        <ele>1505</ele>
        <time>2017-05-26T15:12:59Z</time>
      </trkpt>
      <trkpt lat="45.68162" lon="6.4414">
        <ele>1505</ele>
        <time>2017-05-26T15:13:14Z</time>
      </trkpt>
      <trkpt lat="45.68142" lon="6.44132">
        <ele>1505</ele>
        <time>2017-05-26T15:13:32Z</time>
      </trkpt>
      <trkpt lat="45.68122" lon="6.44132">
        <ele>1515</ele>
        <time>2017-05-26T15:13:50Z</time>
      </trkpt>
      <trkpt lat="45.68103" lon="6.4413">
        <ele>1515</ele>
        <time>2017-05-26T15:14:08Z</time>
      </trkpt>
      <trkpt lat="45.68086" lon="6.4412">
        <ele>1480</ele>
        <time>2017-05-26T15:14:23Z</time>
      </trkpt>
      <trkpt lat="45.68064" lon="6.44123">
        <ele>1480</ele>
        <time>2017-05-26T15:14:44Z</time>
      </trkpt>
      <trkpt lat="45.68046" lon="6.44123">
        <ele>1480</ele>
        <time>2017-05-26T15:14:56Z</time>
      </trkpt>
      <trkpt lat="45.68027" lon="6.44128">
        <ele>1515</ele>
        <time>2017-05-26T15:15:14Z</time>
      </trkpt>
      <trkpt lat="45.6801" lon="6.44137">
        <ele>1515</ele>
        <time>2017-05-26T15:15:32Z</time>
      </trkpt>
      <trkpt lat="45.67995" lon="6.44154">
        <ele>1515</ele>
        <time>2017-05-26T15:15:50Z</time>
      </trkpt>
      <trkpt lat="45.67981" lon="6.44173">
        <ele>1515</ele>
        <time>2017-05-26T15:16:08Z</time>
      </trkpt>
      <trkpt lat="45.67968" lon="6.44192">
        <ele>1515</ele>
        <time>2017-05-26T15:16:20Z</time>
      </trkpt>
      <trkpt lat="45.67948" lon="6.44192">
        <ele>1500</ele>
        <time>2017-05-26T15:16:41Z</time>
      </trkpt>
      <trkpt lat="45.67966" lon="6.4419">
        <ele>1515</ele>
        <time>2017-05-26T15:17:29Z</time>
      </trkpt>
      <trkpt lat="45.67984" lon="6.44182">
        <ele>1515</ele>
        <time>2017-05-26T15:17:47Z</time>
      </trkpt>
      <trkpt lat="45.68004" lon="6.44182">
        <ele>1515</ele>
        <time>2017-05-26T15:18:05Z</time>
      </trkpt>
      <trkpt lat="45.68021" lon="6.44172">
        <ele>1515</ele>
        <time>2017-05-26T15:18:20Z</time>
      </trkpt>
      <trkpt lat="45.68039" lon="6.4418">
        <ele>1515</ele>
        <time>2017-05-26T15:21:32Z</time>
      </trkpt>
      <trkpt lat="45.68029" lon="6.44203">
        <ele>1515</ele>
        <time>2017-05-26T15:22:23Z</time>
      </trkpt>
      <trkpt lat="45.67991" lon="6.4422">
        <ele>1546</ele>
        <time>2017-05-26T15:22:58Z</time>
      </trkpt>
      <trkpt lat="45.67979" lon="6.44244">
        <ele>1546</ele>
        <time>2017-05-26T15:23:32Z</time>
      </trkpt>
      <trkpt lat="45.67999" lon="6.44244">
        <ele>1546</ele>
        <time>2017-05-26T15:24:26Z</time>
      </trkpt>
      <trkpt lat="45.68017" lon="6.44243">
        <ele>1546</ele>
        <time>2017-05-26T15:24:44Z</time>
      </trkpt>
      <trkpt lat="45.68038" lon="6.44246">
        <ele>1546</ele>
        <time>2017-05-26T15:25:02Z</time>
      </trkpt>
      <trkpt lat="45.68057" lon="6.44237">
        <ele>1553</ele>
        <time>2017-05-26T15:25:23Z</time>
      </trkpt>
      <trkpt lat="45.6805" lon="6.44263">
        <ele>1553</ele>
        <time>2017-05-26T15:25:56Z</time>
      </trkpt>
      <trkpt lat="45.68032" lon="6.44279">
        <ele>1546</ele>
        <time>2017-05-26T15:26:17Z</time>
      </trkpt>
      <trkpt lat="45.68015" lon="6.44296">
        <ele>1576</ele>
        <time>2017-05-26T15:26:41Z</time>
      </trkpt>
      <trkpt lat="45.68001" lon="6.44316">
        <ele>1576</ele>
        <time>2017-05-26T15:27:02Z</time>
      </trkpt>
      <trkpt lat="45.67987" lon="6.44331">
        <ele>1576</ele>
        <time>2017-05-26T15:27:17Z</time>
      </trkpt>
      <trkpt lat="45.68003" lon="6.44341">
        <ele>1576</ele>
        <time>2017-05-26T15:27:56Z</time>
      </trkpt>
      <trkpt lat="45.68023" lon="6.44334">
        <ele>1576</ele>
        <time>2017-05-26T15:28:14Z</time>
      </trkpt>
      <trkpt lat="45.68041" lon="6.44336">
        <ele>1576</ele>
        <time>2017-05-26T15:28:44Z</time>
      </trkpt>
      <trkpt lat="45.68058" lon="6.44342">
        <ele>1580</ele>
        <time>2017-05-26T15:28:59Z</time>
      </trkpt>
      <trkpt lat="45.68077" lon="6.44343">
        <ele>1580</ele>
        <time>2017-05-26T15:29:17Z</time>
      </trkpt>
      <trkpt lat="45.68077" lon="6.44369">
        <ele>1644</ele>
        <time>2017-05-26T15:29:47Z</time>
      </trkpt>
      <trkpt lat="45.68058" lon="6.44372">
        <ele>1580</ele>
        <time>2017-05-26T15:30:05Z</time>
      </trkpt>
      <trkpt lat="45.68038" lon="6.44369">
        <ele>1576</ele>
        <time>2017-05-26T15:30:20Z</time>
      </trkpt>
      <trkpt lat="45.68019" lon="6.4438">
        <ele>1606</ele>
        <time>2017-05-26T15:30:41Z</time>
      </trkpt>
      <trkpt lat="45.68001" lon="6.44391">
        <ele>1606</ele>
        <time>2017-05-26T15:30:59Z</time>
      </trkpt>
      <trkpt lat="45.67983" lon="6.44403">
        <ele>1606</ele>
        <time>2017-05-26T15:31:17Z</time>
      </trkpt>
      <trkpt lat="45.67968" lon="6.44421">
        <ele>1606</ele>
        <time>2017-05-26T15:31:35Z</time>
      </trkpt>
      <trkpt lat="45.67952" lon="6.44438">
        <ele>1603</ele>
        <time>2017-05-26T15:31:53Z</time>
      </trkpt>
      <trkpt lat="45.67931" lon="6.44448">
        <ele>1603</ele>
        <time>2017-05-26T15:32:17Z</time>
      </trkpt>
      <trkpt lat="45.67912" lon="6.44466">
        <ele>1631</ele>
        <time>2017-05-26T15:32:32Z</time>
      </trkpt>
      <trkpt lat="45.67867" lon="6.44464">
        <ele>1626</ele>
        <time>2017-05-26T15:33:00Z</time>
      </trkpt>
      <trkpt lat="45.67852" lon="6.4448">
        <ele>1626</ele>
        <time>2017-05-26T15:33:15Z</time>
      </trkpt>
      <trkpt lat="45.67838" lon="6.44496">
        <ele>1626</ele>
        <time>2017-05-26T15:33:30Z</time>
      </trkpt>
      <trkpt lat="45.67823" lon="6.44513">
        <ele>1626</ele>
        <time>2017-05-26T15:33:48Z</time>
      </trkpt>
      <trkpt lat="45.67804" lon="6.44527">
        <ele>1626</ele>
        <time>2017-05-26T15:34:03Z</time>
      </trkpt>
      <trkpt lat="45.67822" lon="6.44524">
        <ele>1626</ele>
        <time>2017-05-26T15:34:36Z</time>
      </trkpt>
      <trkpt lat="45.67839" lon="6.44509">
        <ele>1626</ele>
        <time>2017-05-26T15:34:54Z</time>
      </trkpt>
      <trkpt lat="45.67861" lon="6.44505">
        <ele>1626</ele>
        <time>2017-05-26T15:35:12Z</time>
      </trkpt>
      <trkpt lat="45.67879" lon="6.44519">
        <ele>1631</ele>
        <time>2017-05-26T15:35:30Z</time>
      </trkpt>
      <trkpt lat="45.6789" lon="6.44546">
        <ele>1653</ele>
        <time>2017-05-26T15:35:45Z</time>
      </trkpt>
      <trkpt lat="45.67875" lon="6.4457">
        <ele>1653</ele>
        <time>2017-05-26T15:37:21Z</time>
      </trkpt>
      <trkpt lat="45.67855" lon="6.44559">
        <ele>1654</ele>
        <time>2017-05-26T15:37:30Z</time>
      </trkpt>
      <trkpt lat="45.67834" lon="6.44566">
        <ele>1654</ele>
        <time>2017-05-26T15:37:59Z</time>
      </trkpt>
      <trkpt lat="45.67819" lon="6.4458">
        <ele>1654</ele>
        <time>2017-05-26T15:38:05Z</time>
      </trkpt>
      <trkpt lat="45.67804" lon="6.44595">
        <ele>1654</ele>
        <time>2017-05-26T15:38:20Z</time>
      </trkpt>
      <trkpt lat="45.67789" lon="6.4461">
        <ele>1658</ele>
        <time>2017-05-26T15:38:38Z</time>
      </trkpt>
      <trkpt lat="45.67773" lon="6.44623">
        <ele>1658</ele>
        <time>2017-05-26T15:38:53Z</time>
      </trkpt>
      <trkpt lat="45.67758" lon="6.4464">
        <ele>1673</ele>
        <time>2017-05-26T15:39:17Z</time>
      </trkpt>
      <trkpt lat="45.6774" lon="6.44635">
        <ele>1673</ele>
        <time>2017-05-26T15:40:23Z</time>
      </trkpt>
      <trkpt lat="45.67731" lon="6.44607">
        <ele>1658</ele>
        <time>2017-05-26T15:41:17Z</time>
      </trkpt>
      <trkpt lat="45.67711" lon="6.4461">
        <ele>1658</ele>
        <time>2017-05-26T15:41:41Z</time>
      </trkpt>
      <trkpt lat="45.67694" lon="6.44624">
        <ele>1658</ele>
        <time>2017-05-26T15:41:56Z</time>
      </trkpt>
      <trkpt lat="45.67684" lon="6.44647">
        <ele>1675</ele>
        <time>2017-05-26T15:42:17Z</time>
      </trkpt>
      <trkpt lat="45.67701" lon="6.44661">
        <ele>1675</ele>
        <time>2017-05-26T15:42:41Z</time>
      </trkpt>
      <trkpt lat="45.67673" lon="6.44668">
        <ele>1675</ele>
        <time>2017-05-26T15:45:10Z</time>
      </trkpt>
      <trkpt lat="45.67691" lon="6.44676">
        <ele>1675</ele>
        <time>2017-05-26T15:45:19Z</time>
      </trkpt>
      <trkpt lat="45.67681" lon="6.44707">
        <ele>1675</ele>
        <time>2017-05-26T15:52:58Z</time>
      </trkpt>
      <trkpt lat="45.67703" lon="6.44748">
        <ele>1675</ele>
        <time>2017-05-26T15:53:07Z</time>
      </trkpt>
      <trkpt lat="45.67721" lon="6.44754">
        <ele>1681</ele>
        <time>2017-05-26T15:53:20Z</time>
      </trkpt>
      <trkpt lat="45.67727" lon="6.44784">
        <ele>1681</ele>
        <time>2017-05-26T15:53:27Z</time>
      </trkpt>
      <trkpt lat="45.67727" lon="6.44813">
        <ele>1688</ele>
        <time>2017-05-26T15:53:34Z</time>
      </trkpt>
      <trkpt lat="45.67731" lon="6.44841">
        <ele>1688</ele>
        <time>2017-05-26T15:53:41Z</time>
      </trkpt>
      <trkpt lat="45.67736" lon="6.44866">
        <ele>1688</ele>
        <time>2017-05-26T15:53:48Z</time>
      </trkpt>
      <trkpt lat="45.67746" lon="6.44898">
        <ele>1685</ele>
        <time>2017-05-26T15:53:58Z</time>
      </trkpt>
      <trkpt lat="45.67751" lon="6.44928">
        <ele>1685</ele>
        <time>2017-05-26T15:54:07Z</time>
      </trkpt>
      <trkpt lat="45.67757" lon="6.44956">
        <ele>1685</ele>
        <time>2017-05-26T15:54:16Z</time>
      </trkpt>
      <trkpt lat="45.67764" lon="6.44982">
        <ele>1679</ele>
        <time>2017-05-26T15:54:25Z</time>
      </trkpt>
      <trkpt lat="45.67771" lon="6.45011">
        <ele>1679</ele>
        <time>2017-05-26T15:54:37Z</time>
      </trkpt>
      <trkpt lat="45.67773" lon="6.45043">
        <ele>1675</ele>
        <time>2017-05-26T15:54:49Z</time>
      </trkpt>
      <trkpt lat="45.67775" lon="6.45077">
        <ele>1675</ele>
        <time>2017-05-26T15:55:01Z</time>
      </trkpt>
      <trkpt lat="45.67776" lon="6.45103">
        <ele>1675</ele>
        <time>2017-05-26T15:55:10Z</time>
      </trkpt>
      <trkpt lat="45.67781" lon="6.45128">
        <ele>1669</ele>
        <time>2017-05-26T15:55:19Z</time>
      </trkpt>
      <trkpt lat="45.67789" lon="6.45151">
        <ele>1669</ele>
        <time>2017-05-26T15:55:25Z</time>
      </trkpt>
      <trkpt lat="45.67798" lon="6.4518">
        <ele>1721</ele>
        <time>2017-05-26T15:55:34Z</time>
      </trkpt>
      <trkpt lat="45.67803" lon="6.4521">
        <ele>1726</ele>
        <time>2017-05-26T15:55:46Z</time>
      </trkpt>
      <trkpt lat="45.67799" lon="6.45239">
        <ele>1726</ele>
        <time>2017-05-26T15:55:58Z</time>
      </trkpt>
      <trkpt lat="45.67791" lon="6.45266">
        <ele>1674</ele>
        <time>2017-05-26T15:56:10Z</time>
      </trkpt>
      <trkpt lat="45.67781" lon="6.45291">
        <ele>1674</ele>
        <time>2017-05-26T15:56:22Z</time>
      </trkpt>
      <trkpt lat="45.67769" lon="6.45311">
        <ele>1693</ele>
        <time>2017-05-26T15:56:34Z</time>
      </trkpt>
      <trkpt lat="45.67758" lon="6.45336">
        <ele>1693</ele>
        <time>2017-05-26T15:56:49Z</time>
      </trkpt>
      <trkpt lat="45.67754" lon="6.45367">
        <ele>1693</ele>
        <time>2017-05-26T15:57:01Z</time>
      </trkpt>
      <trkpt lat="45.67748" lon="6.45397">
        <ele>1708</ele>
        <time>2017-05-26T15:57:13Z</time>
      </trkpt>
      <trkpt lat="45.67746" lon="6.45424">
        <ele>1708</ele>
        <time>2017-05-26T15:57:22Z</time>
      </trkpt>
      <trkpt lat="45.67751" lon="6.45457">
        <ele>1708</ele>
        <time>2017-05-26T15:57:34Z</time>
      </trkpt>
      <trkpt lat="45.67762" lon="6.45493">
        <ele>1707</ele>
        <time>2017-05-26T15:57:43Z</time>
      </trkpt>
      <trkpt lat="45.67771" lon="6.45521">
        <ele>1707</ele>
        <time>2017-05-26T15:57:49Z</time>
      </trkpt>
      <trkpt lat="45.67779" lon="6.45546">
        <ele>1688</ele>
        <time>2017-05-26T15:57:58Z</time>
      </trkpt>
      <trkpt lat="45.67794" lon="6.4557">
        <ele>1720</ele>
        <time>2017-05-26T15:58:07Z</time>
      </trkpt>
      <trkpt lat="45.67804" lon="6.45591">
        <ele>1720</ele>
        <time>2017-05-26T15:58:16Z</time>
      </trkpt>
      <trkpt lat="45.67822" lon="6.45612">
        <ele>1720</ele>
        <time>2017-05-26T15:58:25Z</time>
      </trkpt>
      <trkpt lat="45.67836" lon="6.45638">
        <ele>1698</ele>
        <time>2017-05-26T15:58:34Z</time>
      </trkpt>
      <trkpt lat="45.67851" lon="6.45657">
        <ele>1698</ele>
        <time>2017-05-26T15:58:43Z</time>
      </trkpt>
      <trkpt lat="45.67873" lon="6.45665">
        <ele>1698</ele>
        <time>2017-05-26T15:58:52Z</time>
      </trkpt>
      <trkpt lat="45.67897" lon="6.45679">
        <ele>1735</ele>
        <time>2017-05-26T15:59:01Z</time>
      </trkpt>
      <trkpt lat="45.6791" lon="6.45707">
        <ele>1735</ele>
        <time>2017-05-26T15:59:10Z</time>
      </trkpt>
      <trkpt lat="45.67921" lon="6.45736">
        <ele>1707</ele>
        <time>2017-05-26T15:59:19Z</time>
      </trkpt>
      <trkpt lat="45.67932" lon="6.45765">
        <ele>1707</ele>
        <time>2017-05-26T15:59:28Z</time>
      </trkpt>
      <trkpt lat="45.67939" lon="6.45796">
        <ele>1698</ele>
        <time>2017-05-26T15:59:37Z</time>
      </trkpt>
      <trkpt lat="45.67945" lon="6.45826">
        <ele>1698</ele>
        <time>2017-05-26T15:59:52Z</time>
      </trkpt>
      <trkpt lat="45.67955" lon="6.45853">
        <ele>1698</ele>
        <time>2017-05-26T16:00:07Z</time>
      </trkpt>
      <trkpt lat="45.67967" lon="6.45874">
        <ele>1746</ele>
        <time>2017-05-26T16:00:25Z</time>
      </trkpt>
      <trkpt lat="45.67965" lon="6.45901">
        <ele>1739</ele>
        <time>2017-05-26T16:00:46Z</time>
      </trkpt>
      <trkpt lat="45.67983" lon="6.45896">
        <ele>1739</ele>
        <time>2017-05-26T16:01:07Z</time>
      </trkpt>
      <trkpt lat="45.67991" lon="6.45867">
        <ele>1746</ele>
        <time>2017-05-26T16:01:22Z</time>
      </trkpt>
      <trkpt lat="45.6799" lon="6.45839">
        <ele>1746</ele>
        <time>2017-05-26T16:01:37Z</time>
      </trkpt>
      <trkpt lat="45.67998" lon="6.45865">
        <ele>1746</ele>
        <time>2017-05-26T16:01:55Z</time>
      </trkpt>
      <trkpt lat="45.68003" lon="6.45893">
        <ele>1739</ele>
        <time>2017-05-26T16:02:10Z</time>
      </trkpt>
      <trkpt lat="45.68002" lon="6.45922">
        <ele>1739</ele>
        <time>2017-05-26T16:02:25Z</time>
      </trkpt>
      <trkpt lat="45.67998" lon="6.4595">
        <ele>1739</ele>
        <time>2017-05-26T16:02:43Z</time>
      </trkpt>
      <trkpt lat="45.67997" lon="6.45978">
        <ele>1741</ele>
        <time>2017-05-26T16:02:58Z</time>
      </trkpt>
      <trkpt lat="45.67997" lon="6.46011">
        <ele>1741</ele>
        <time>2017-05-26T16:03:16Z</time>
      </trkpt>
      <trkpt lat="45.68008" lon="6.45989">
        <ele>1741</ele>
        <time>2017-05-26T16:03:40Z</time>
      </trkpt>
      <trkpt lat="45.68019" lon="6.45963">
        <ele>1741</ele>
        <time>2017-05-26T16:03:55Z</time>
      </trkpt>
      <trkpt lat="45.68022" lon="6.4599">
        <ele>1741</ele>
        <time>2017-05-26T16:04:31Z</time>
      </trkpt>
      <trkpt lat="45.6804" lon="6.45974">
        <ele>1741</ele>
        <time>2017-05-26T16:05:01Z</time>
      </trkpt>
      <trkpt lat="45.68055" lon="6.45958">
        <ele>1788</ele>
        <time>2017-05-26T16:05:16Z</time>
      </trkpt>
      <trkpt lat="45.68049" lon="6.45983">
        <ele>1784</ele>
        <time>2017-05-26T16:05:34Z</time>
      </trkpt>
      <trkpt lat="45.68047" lon="6.46011">
        <ele>1784</ele>
        <time>2017-05-26T16:05:49Z</time>
      </trkpt>
      <trkpt lat="45.68052" lon="6.4604">
        <ele>1784</ele>
        <time>2017-05-26T16:06:07Z</time>
      </trkpt>
      <trkpt lat="45.68048" lon="6.46069">
        <ele>1793</ele>
        <time>2017-05-26T16:06:22Z</time>
      </trkpt>
      <trkpt lat="45.68046" lon="6.46097">
        <ele>1793</ele>
        <time>2017-05-26T16:06:37Z</time>
      </trkpt>
      <trkpt lat="45.68037" lon="6.46126">
        <ele>1762</ele>
        <time>2017-05-26T16:08:07Z</time>
      </trkpt>
      <trkpt lat="45.68029" lon="6.46153">
        <ele>1762</ele>
        <time>2017-05-26T16:08:22Z</time>
      </trkpt>
      <trkpt lat="45.68034" lon="6.46181">
        <ele>1762</ele>
        <time>2017-05-26T16:08:37Z</time>
      </trkpt>
      <trkpt lat="45.68037" lon="6.4621">
        <ele>1766</ele>
        <time>2017-05-26T16:08:52Z</time>
      </trkpt>
      <trkpt lat="45.68032" lon="6.46237">
        <ele>1766</ele>
        <time>2017-05-26T16:09:07Z</time>
      </trkpt>
      <trkpt lat="45.68031" lon="6.46263">
        <ele>1766</ele>
        <time>2017-05-26T16:09:19Z</time>
      </trkpt>
      <trkpt lat="45.68036" lon="6.46292">
        <ele>1768</ele>
        <time>2017-05-26T16:09:34Z</time>
      </trkpt>
      <trkpt lat="45.68043" lon="6.46321">
        <ele>1805</ele>
        <time>2017-05-26T16:09:49Z</time>
      </trkpt>
      <trkpt lat="45.68037" lon="6.46352">
        <ele>1768</ele>
        <time>2017-05-26T16:10:01Z</time>
      </trkpt>
      <trkpt lat="45.68037" lon="6.46378">
        <ele>1772</ele>
        <time>2017-05-26T16:10:16Z</time>
      </trkpt>
      <trkpt lat="45.68037" lon="6.46407">
        <ele>1772</ele>
        <time>2017-05-26T16:10:43Z</time>
      </trkpt>
      <trkpt lat="45.68047" lon="6.46436">
        <ele>1803</ele>
        <time>2017-05-26T16:10:58Z</time>
      </trkpt>
      <trkpt lat="45.68054" lon="6.4646">
        <ele>1803</ele>
        <time>2017-05-26T16:11:13Z</time>
      </trkpt>
      <trkpt lat="45.68056" lon="6.46489">
        <ele>1803</ele>
        <time>2017-05-26T16:11:55Z</time>
      </trkpt>
      <trkpt lat="45.68065" lon="6.46519">
        <ele>1803</ele>
        <time>2017-05-26T16:12:10Z</time>
      </trkpt>
      <trkpt lat="45.68081" lon="6.46502">
        <ele>1803</ele>
        <time>2017-05-26T16:12:46Z</time>
      </trkpt>
      <trkpt lat="45.68088" lon="6.46473">
        <ele>1803</ele>
        <time>2017-05-26T16:13:04Z</time>
      </trkpt>
      <trkpt lat="45.68105" lon="6.46483">
        <ele>1803</ele>
        <time>2017-05-26T16:13:31Z</time>
      </trkpt>
      <trkpt lat="45.68104" lon="6.46512">
        <ele>1803</ele>
        <time>2017-05-26T16:13:49Z</time>
      </trkpt>
      <trkpt lat="45.68115" lon="6.46491">
        <ele>1803</ele>
        <time>2017-05-26T16:14:04Z</time>
      </trkpt>
      <trkpt lat="45.68128" lon="6.46466">
        <ele>1845</ele>
        <time>2017-05-26T16:14:22Z</time>
      </trkpt>
      <trkpt lat="45.68126" lon="6.46492">
        <ele>1845</ele>
        <time>2017-05-26T16:14:40Z</time>
      </trkpt>
      <trkpt lat="45.68117" lon="6.4652">
        <ele>1803</ele>
        <time>2017-05-26T16:14:55Z</time>
      </trkpt>
      <trkpt lat="45.68108" lon="6.46548">
        <ele>1817</ele>
        <time>2017-05-26T16:15:10Z</time>
      </trkpt>
      <trkpt lat="45.681" lon="6.46576">
        <ele>1817</ele>
        <time>2017-05-26T16:15:25Z</time>
      </trkpt>
      <trkpt lat="45.68119" lon="6.46551">
        <ele>1817</ele>
        <time>2017-05-26T16:19:26Z</time>
      </trkpt>
      <trkpt lat="45.68133" lon="6.46528">
        <ele>1845</ele>
        <time>2017-05-26T16:19:41Z</time>
      </trkpt>
      <trkpt lat="45.68147" lon="6.46509">
        <ele>1845</ele>
        <time>2017-05-26T16:19:56Z</time>
      </trkpt>
      <trkpt lat="45.68162" lon="6.46491">
        <ele>1845</ele>
        <time>2017-05-26T16:20:07Z</time>
      </trkpt>
      <trkpt lat="45.68167" lon="6.46465">
        <ele>1845</ele>
        <time>2017-05-26T16:20:32Z</time>
      </trkpt>
      <trkpt lat="45.68175" lon="6.46439">
        <ele>1838</ele>
        <time>2017-05-26T16:20:55Z</time>
      </trkpt>
      <trkpt lat="45.68177" lon="6.46411">
        <ele>1838</ele>
        <time>2017-05-26T16:21:25Z</time>
      </trkpt>
      <trkpt lat="45.6817" lon="6.46386">
        <ele>1838</ele>
        <time>2017-05-26T16:21:48Z</time>
      </trkpt>
      <trkpt lat="45.68167" lon="6.46356">
        <ele>1841</ele>
        <time>2017-05-26T16:22:48Z</time>
      </trkpt>
      <trkpt lat="45.6817" lon="6.46326">
        <ele>1841</ele>
        <time>2017-05-26T16:23:03Z</time>
      </trkpt>
      <trkpt lat="45.68167" lon="6.46299">
        <ele>1841</ele>
        <time>2017-05-26T16:23:15Z</time>
      </trkpt>
      <trkpt lat="45.68168" lon="6.46273">
        <ele>1845</ele>
        <time>2017-05-26T16:23:27Z</time>
      </trkpt>
      <trkpt lat="45.68164" lon="6.46241">
        <ele>1845</ele>
        <time>2017-05-26T16:23:42Z</time>
      </trkpt>
      <trkpt lat="45.68161" lon="6.46213">
        <ele>1845</ele>
        <time>2017-05-26T16:24:07Z</time>
      </trkpt>
      <trkpt lat="45.68152" lon="6.4619">
        <ele>1843</ele>
        <time>2017-05-26T16:24:19Z</time>
      </trkpt>
      <trkpt lat="45.68147" lon="6.46161">
        <ele>1843</ele>
        <time>2017-05-26T16:26:16Z</time>
      </trkpt>
      <trkpt lat="45.68143" lon="6.46136">
        <ele>1843</ele>
        <time>2017-05-26T16:26:22Z</time>
      </trkpt>
      <trkpt lat="45.68138" lon="6.46111">
        <ele>1842</ele>
        <time>2017-05-26T16:27:16Z</time>
      </trkpt>
      <trkpt lat="45.68134" lon="6.46078">
        <ele>1842</ele>
        <time>2017-05-26T16:27:34Z</time>
      </trkpt>
      <trkpt lat="45.68139" lon="6.46051">
        <ele>1842</ele>
        <time>2017-05-26T16:27:55Z</time>
      </trkpt>
      <trkpt lat="45.68139" lon="6.46024">
        <ele>1848</ele>
        <time>2017-05-26T16:28:22Z</time>
      </trkpt>
      <trkpt lat="45.68141" lon="6.45999">
        <ele>1848</ele>
        <time>2017-05-26T16:29:13Z</time>
      </trkpt>
      <trkpt lat="45.68137" lon="6.45973">
        <ele>1848</ele>
        <time>2017-05-26T16:29:40Z</time>
      </trkpt>
      <trkpt lat="45.68133" lon="6.45943">
        <ele>1865</ele>
        <time>2017-05-26T16:30:19Z</time>
      </trkpt>
      <trkpt lat="45.68123" lon="6.45907">
        <ele>1788</ele>
        <time>2017-05-26T16:30:31Z</time>
      </trkpt>
      <trkpt lat="45.68117" lon="6.45877">
        <ele>1868</ele>
        <time>2017-05-26T16:30:37Z</time>
      </trkpt>
      <trkpt lat="45.68108" lon="6.45847">
        <ele>1869</ele>
        <time>2017-05-26T16:30:52Z</time>
      </trkpt>
      <trkpt lat="45.68099" lon="6.45817">
        <ele>1812</ele>
        <time>2017-05-26T16:30:58Z</time>
      </trkpt>
      <trkpt lat="45.68087" lon="6.45796">
        <ele>1812</ele>
        <time>2017-05-26T16:31:01Z</time>
      </trkpt>
      <trkpt lat="45.68067" lon="6.4577">
        <ele>1830</ele>
        <time>2017-05-26T16:31:07Z</time>
      </trkpt>
      <trkpt lat="45.68052" lon="6.4575">
        <ele>1830</ele>
        <time>2017-05-26T16:31:13Z</time>
      </trkpt>
      <trkpt lat="45.68036" lon="6.45725">
        <ele>1770</ele>
        <time>2017-05-26T16:31:19Z</time>
      </trkpt>
      <trkpt lat="45.6803" lon="6.45693">
        <ele>1781</ele>
        <time>2017-05-26T16:31:28Z</time>
      </trkpt>
      <trkpt lat="45.68026" lon="6.45667">
        <ele>1781</ele>
        <time>2017-05-26T16:31:40Z</time>
      </trkpt>
      <trkpt lat="45.68024" lon="6.45636">
        <ele>1781</ele>
        <time>2017-05-26T16:31:49Z</time>
      </trkpt>
      <trkpt lat="45.68021" lon="6.45606">
        <ele>1795</ele>
        <time>2017-05-26T16:31:58Z</time>
      </trkpt>
      <trkpt lat="45.6802" lon="6.45576">
        <ele>1795</ele>
        <time>2017-05-26T16:32:10Z</time>
      </trkpt>
      <trkpt lat="45.68015" lon="6.45549">
        <ele>1795</ele>
        <time>2017-05-26T16:32:22Z</time>
      </trkpt>
      <trkpt lat="45.68014" lon="6.45522">
        <ele>1808</ele>
        <time>2017-05-26T16:32:37Z</time>
      </trkpt>
      <trkpt lat="45.68009" lon="6.45486">
        <ele>1808</ele>
        <time>2017-05-26T16:32:49Z</time>
      </trkpt>
      <trkpt lat="45.68005" lon="6.4546">
        <ele>1808</ele>
        <time>2017-05-26T16:33:01Z</time>
      </trkpt>
      <trkpt lat="45.68002" lon="6.45434">
        <ele>1808</ele>
        <time>2017-05-26T16:33:16Z</time>
      </trkpt>
      <trkpt lat="45.68003" lon="6.45402">
        <ele>1808</ele>
        <time>2017-05-26T16:33:34Z</time>
      </trkpt>
      <trkpt lat="45.68012" lon="6.45375">
        <ele>1804</ele>
        <time>2017-05-26T16:33:49Z</time>
      </trkpt>
      <trkpt lat="45.68017" lon="6.45348">
        <ele>1804</ele>
        <time>2017-05-26T16:34:01Z</time>
      </trkpt>
      <trkpt lat="45.68015" lon="6.45321">
        <ele>1804</ele>
        <time>2017-05-26T16:34:13Z</time>
      </trkpt>
      <trkpt lat="45.68006" lon="6.45294">
        <ele>1804</ele>
        <time>2017-05-26T16:34:25Z</time>
      </trkpt>
      <trkpt lat="45.67996" lon="6.45271">
        <ele>1797</ele>
        <time>2017-05-26T16:34:37Z</time>
      </trkpt>
      <trkpt lat="45.67991" lon="6.45236">
        <ele>1797</ele>
        <time>2017-05-26T16:55:06Z</time>
      </trkpt>
      <trkpt lat="45.67985" lon="6.45209">
        <ele>1797</ele>
        <time>2017-05-26T16:55:12Z</time>
      </trkpt>
      <trkpt lat="45.67971" lon="6.45187">
        <ele>1781</ele>
        <time>2017-05-26T16:55:18Z</time>
      </trkpt>
      <trkpt lat="45.67965" lon="6.45156">
        <ele>1781</ele>
        <time>2017-05-26T16:55:30Z</time>
      </trkpt>
      <trkpt lat="45.67949" lon="6.45128">
        <ele>1770</ele>
        <time>2017-05-26T16:55:39Z</time>
      </trkpt>
      <trkpt lat="45.67936" lon="6.45103">
        <ele>1754</ele>
        <time>2017-05-26T16:55:48Z</time>
      </trkpt>
      <trkpt lat="45.67921" lon="6.45086">
        <ele>1754</ele>
        <time>2017-05-26T16:55:57Z</time>
      </trkpt>
      <trkpt lat="45.6791" lon="6.45065">
        <ele>1754</ele>
        <time>2017-05-26T16:56:06Z</time>
      </trkpt>
      <trkpt lat="45.67892" lon="6.45049">
        <ele>1754</ele>
        <time>2017-05-26T16:56:15Z</time>
      </trkpt>
      <trkpt lat="45.67879" lon="6.45031">
        <ele>1731</ele>
        <time>2017-05-26T16:56:24Z</time>
      </trkpt>
      <trkpt lat="45.67862" lon="6.45007">
        <ele>1719</ele>
        <time>2017-05-26T16:56:33Z</time>
      </trkpt>
      <trkpt lat="45.67842" lon="6.44977">
        <ele>1719</ele>
        <time>2017-05-26T16:56:42Z</time>
      </trkpt>
      <trkpt lat="45.67835" lon="6.44948">
        <ele>1708</ele>
        <time>2017-05-26T16:56:48Z</time>
      </trkpt>
      <trkpt lat="45.67824" lon="6.44924">
        <ele>1708</ele>
        <time>2017-05-26T16:56:57Z</time>
      </trkpt>
      <trkpt lat="45.67814" lon="6.44897">
        <ele>1708</ele>
        <time>2017-05-26T16:57:09Z</time>
      </trkpt>
      <trkpt lat="45.67804" lon="6.44864">
        <ele>1693</ele>
        <time>2017-05-26T16:57:21Z</time>
      </trkpt>
      <trkpt lat="45.6779" lon="6.44843">
        <ele>1688</ele>
        <time>2017-05-26T16:57:27Z</time>
      </trkpt>
      <trkpt lat="45.67777" lon="6.44822">
        <ele>1688</ele>
        <time>2017-05-26T16:57:33Z</time>
      </trkpt>
      <trkpt lat="45.67764" lon="6.44787">
        <ele>1681</ele>
        <time>2017-05-26T16:57:42Z</time>
      </trkpt>
      <trkpt lat="45.67749" lon="6.44759">
        <ele>1681</ele>
        <time>2017-05-26T16:57:48Z</time>
      </trkpt>
      <trkpt lat="45.67733" lon="6.44739">
        <ele>1681</ele>
        <time>2017-05-26T16:57:54Z</time>
      </trkpt>
      <trkpt lat="45.67713" lon="6.44743">
        <ele>1681</ele>
        <time>2017-05-26T16:58:06Z</time>
      </trkpt>
      <trkpt lat="45.67691" lon="6.44736">
        <ele>1675</ele>
        <time>2017-05-26T16:58:15Z</time>
      </trkpt>
      <trkpt lat="45.67677" lon="6.44716">
        <ele>1675</ele>
        <time>2017-05-26T16:58:30Z</time>
      </trkpt>
      <trkpt lat="45.67686" lon="6.44693">
        <ele>1675</ele>
        <time>2017-05-26T16:58:45Z</time>
      </trkpt>
      <trkpt lat="45.67688" lon="6.44663">
        <ele>1675</ele>
        <time>2017-05-26T16:59:33Z</time>
      </trkpt>
      <trkpt lat="45.67701" lon="6.44625">
        <ele>1658</ele>
        <time>2017-05-26T16:59:39Z</time>
      </trkpt>
      <trkpt lat="45.67717" lon="6.44604">
        <ele>1658</ele>
        <time>2017-05-26T16:59:42Z</time>
      </trkpt>
      <trkpt lat="45.67735" lon="6.446">
        <ele>1658</ele>
        <time>2017-05-26T16:59:48Z</time>
      </trkpt>
      <trkpt lat="45.67741" lon="6.4463">
        <ele>1673</ele>
        <time>2017-05-26T16:59:54Z</time>
      </trkpt>
      <trkpt lat="45.67766" lon="6.4463">
        <ele>1673</ele>
        <time>2017-05-26T17:00:03Z</time>
      </trkpt>
      <trkpt lat="45.67796" lon="6.44605">
        <ele>1654</ele>
        <time>2017-05-26T17:00:09Z</time>
      </trkpt>
      <trkpt lat="45.67816" lon="6.44589">
        <ele>1654</ele>
        <time>2017-05-26T17:00:12Z</time>
      </trkpt>
      <trkpt lat="45.6784" lon="6.44575">
        <ele>1654</ele>
        <time>2017-05-26T17:00:15Z</time>
      </trkpt>
      <trkpt lat="45.67874" lon="6.44572">
        <ele>1654</ele>
        <time>2017-05-26T17:00:18Z</time>
      </trkpt>
      <trkpt lat="45.67886" lon="6.44546">
        <ele>1653</ele>
        <time>2017-05-26T17:00:21Z</time>
      </trkpt>
      <trkpt lat="45.6787" lon="6.44522">
        <ele>1626</ele>
        <time>2017-05-26T17:00:27Z</time>
      </trkpt>
      <trkpt lat="45.67834" lon="6.44519">
        <ele>1626</ele>
        <time>2017-05-26T17:00:33Z</time>
      </trkpt>
      <trkpt lat="45.67809" lon="6.44523">
        <ele>1626</ele>
        <time>2017-05-26T17:00:36Z</time>
      </trkpt>
      <trkpt lat="45.67825" lon="6.44503">
        <ele>1626</ele>
        <time>2017-05-26T17:00:48Z</time>
      </trkpt>
      <trkpt lat="45.67844" lon="6.44491">
        <ele>1626</ele>
        <time>2017-05-26T17:00:51Z</time>
      </trkpt>
      <trkpt lat="45.67864" lon="6.4448">
        <ele>1626</ele>
        <time>2017-05-26T17:00:54Z</time>
      </trkpt>
      <trkpt lat="45.67884" lon="6.44477">
        <ele>1631</ele>
        <time>2017-05-26T17:01:00Z</time>
      </trkpt>
      <trkpt lat="45.67881" lon="6.44442">
        <ele>1603</ele>
        <time>2017-05-26T17:01:06Z</time>
      </trkpt>
      <trkpt lat="45.67904" lon="6.44412">
        <ele>1603</ele>
        <time>2017-05-26T17:01:12Z</time>
      </trkpt>
      <trkpt lat="45.67915" lon="6.44391">
        <ele>1603</ele>
        <time>2017-05-26T17:01:21Z</time>
      </trkpt>
      <trkpt lat="45.67937" lon="6.44384">
        <ele>1603</ele>
        <time>2017-05-26T17:01:33Z</time>
      </trkpt>
      <trkpt lat="45.67955" lon="6.44361">
        <ele>1568</ele>
        <time>2017-05-26T17:01:39Z</time>
      </trkpt>
      <trkpt lat="45.67976" lon="6.44324">
        <ele>1576</ele>
        <time>2017-05-26T17:01:45Z</time>
      </trkpt>
      <trkpt lat="45.67993" lon="6.44303">
        <ele>1576</ele>
        <time>2017-05-26T17:01:54Z</time>
      </trkpt>
      <trkpt lat="45.67996" lon="6.44273">
        <ele>1546</ele>
        <time>2017-05-26T17:02:12Z</time>
      </trkpt>
      <trkpt lat="45.67994" lon="6.44247">
        <ele>1546</ele>
        <time>2017-05-26T17:02:24Z</time>
      </trkpt>
      <trkpt lat="45.67975" lon="6.44237">
        <ele>1546</ele>
        <time>2017-05-26T17:02:39Z</time>
      </trkpt>
      <trkpt lat="45.67953" lon="6.44236">
        <ele>1530</ele>
        <time>2017-05-26T17:02:51Z</time>
      </trkpt>
      <trkpt lat="45.67961" lon="6.44207">
        <ele>1515</ele>
        <time>2017-05-26T17:03:00Z</time>
      </trkpt>
      <trkpt lat="45.67935" lon="6.44203">
        <ele>1500</ele>
        <time>2017-05-26T17:03:12Z</time>
      </trkpt>
      <trkpt lat="45.67948" lon="6.44177">
        <ele>1500</ele>
        <time>2017-05-26T17:03:18Z</time>
      </trkpt>
      <trkpt lat="45.67968" lon="6.4414">
        <ele>1515</ele>
        <time>2017-05-26T17:03:24Z</time>
      </trkpt>
      <trkpt lat="45.67982" lon="6.44121">
        <ele>1479</ele>
        <time>2017-05-26T17:03:27Z</time>
      </trkpt>
      <trkpt lat="45.68004" lon="6.44098">
        <ele>1556</ele>
        <time>2017-05-26T17:03:33Z</time>
      </trkpt>
      <trkpt lat="45.68018" lon="6.4407">
        <ele>1479</ele>
        <time>2017-05-26T17:03:45Z</time>
      </trkpt>
      <trkpt lat="45.68038" lon="6.4406">
        <ele>1526</ele>
        <time>2017-05-26T17:03:57Z</time>
      </trkpt>
      <trkpt lat="45.68059" lon="6.44055">
        <ele>1480</ele>
        <time>2017-05-26T17:04:06Z</time>
      </trkpt>
      <trkpt lat="45.68082" lon="6.44049">
        <ele>1480</ele>
        <time>2017-05-26T17:04:12Z</time>
      </trkpt>
      <trkpt lat="45.68105" lon="6.44032">
        <ele>1446</ele>
        <time>2017-05-26T17:04:18Z</time>
      </trkpt>
      <trkpt lat="45.68106" lon="6.43998">
        <ele>1446</ele>
        <time>2017-05-26T17:04:27Z</time>
      </trkpt>
      <trkpt lat="45.68079" lon="6.44008">
        <ele>1446</ele>
        <time>2017-05-26T17:04:36Z</time>
      </trkpt>
      <trkpt lat="45.68092" lon="6.43967">
        <ele>1446</ele>
        <time>2017-05-26T17:04:42Z</time>
      </trkpt>
      <trkpt lat="45.68067" lon="6.43969">
        <ele>1446</ele>
        <time>2017-05-26T17:04:57Z</time>
      </trkpt>
      <trkpt lat="45.68052" lon="6.43947">
        <ele>1417</ele>
        <time>2017-05-26T17:05:09Z</time>
      </trkpt>
      <trkpt lat="45.68034" lon="6.43936">
        <ele>1470</ele>
        <time>2017-05-26T17:05:18Z</time>
      </trkpt>
      <trkpt lat="45.68035" lon="6.43894">
        <ele>1403</ele>
        <time>2017-05-26T17:05:27Z</time>
      </trkpt>
      <trkpt lat="45.6805" lon="6.43853">
        <ele>1390</ele>
        <time>2017-05-26T17:05:33Z</time>
      </trkpt>
      <trkpt lat="45.68071" lon="6.43826">
        <ele>1390</ele>
        <time>2017-05-26T17:05:39Z</time>
      </trkpt>
      <trkpt lat="45.6809" lon="6.43795">
        <ele>1390</ele>
        <time>2017-05-26T17:05:57Z</time>
      </trkpt>
      <trkpt lat="45.68071" lon="6.4377">
        <ele>1357</ele>
        <time>2017-05-26T17:06:09Z</time>
      </trkpt>
      <trkpt lat="45.68045" lon="6.43765">
        <ele>1357</ele>
        <time>2017-05-26T17:06:15Z</time>
      </trkpt>
      <trkpt lat="45.68068" lon="6.43753">
        <ele>1357</ele>
        <time>2017-05-26T17:06:24Z</time>
      </trkpt>
      <trkpt lat="45.68091" lon="6.43746">
        <ele>1357</ele>
        <time>2017-05-26T17:06:27Z</time>
      </trkpt>
      <trkpt lat="45.68103" lon="6.43711">
        <ele>1357</ele>
        <time>2017-05-26T17:06:30Z</time>
      </trkpt>
      <trkpt lat="45.68118" lon="6.4368">
        <ele>1340</ele>
        <time>2017-05-26T17:06:33Z</time>
      </trkpt>
      <trkpt lat="45.68139" lon="6.43653">
        <ele>1352</ele>
        <time>2017-05-26T17:06:36Z</time>
      </trkpt>
      <trkpt lat="45.68161" lon="6.43636">
        <ele>1352</ele>
        <time>2017-05-26T17:06:39Z</time>
      </trkpt>
      <trkpt lat="45.68184" lon="6.43612">
        <ele>1329</ele>
        <time>2017-05-26T17:06:42Z</time>
      </trkpt>
      <trkpt lat="45.6821" lon="6.43594">
        <ele>1327</ele>
        <time>2017-05-26T17:06:45Z</time>
      </trkpt>
      <trkpt lat="45.68238" lon="6.43596">
        <ele>1327</ele>
        <time>2017-05-26T17:06:48Z</time>
      </trkpt>
      <trkpt lat="45.68258" lon="6.43592">
        <ele>1327</ele>
        <time>2017-05-26T17:06:51Z</time>
      </trkpt>
      <trkpt lat="45.68251" lon="6.43566">
        <ele>1327</ele>
        <time>2017-05-26T17:06:54Z</time>
      </trkpt>
      <trkpt lat="45.68276" lon="6.43571">
        <ele>1327</ele>
        <time>2017-05-26T17:07:06Z</time>
      </trkpt>
      <trkpt lat="45.68294" lon="6.43567">
        <ele>1323</ele>
        <time>2017-05-26T17:07:36Z</time>
      </trkpt>
      <trkpt lat="45.68312" lon="6.43534">
        <ele>1302</ele>
        <time>2017-05-26T17:07:51Z</time>
      </trkpt>
      <trkpt lat="45.68295" lon="6.43502">
        <ele>1302</ele>
        <time>2017-05-26T17:08:00Z</time>
      </trkpt>
      <trkpt lat="45.68276" lon="6.43493">
        <ele>1304</ele>
        <time>2017-05-26T17:08:06Z</time>
      </trkpt>
      <trkpt lat="45.68285" lon="6.43458">
        <ele>1274</ele>
        <time>2017-05-26T17:08:12Z</time>
      </trkpt>
      <trkpt lat="45.68296" lon="6.43436">
        <ele>1271</ele>
        <time>2017-05-26T17:08:15Z</time>
      </trkpt>
      <trkpt lat="45.68314" lon="6.43432">
        <ele>1271</ele>
        <time>2017-05-26T17:08:24Z</time>
      </trkpt>
      <trkpt lat="45.68336" lon="6.43431">
        <ele>1271</ele>
        <time>2017-05-26T17:08:36Z</time>
      </trkpt>
      <trkpt lat="45.68356" lon="6.43438">
        <ele>1271</ele>
        <time>2017-05-26T17:08:54Z</time>
      </trkpt>
      <trkpt lat="45.68379" lon="6.4345">
        <ele>1251</ele>
        <time>2017-05-26T17:09:00Z</time>
      </trkpt>
      <trkpt lat="45.68402" lon="6.43456">
        <ele>1251</ele>
        <time>2017-05-26T17:09:06Z</time>
      </trkpt>
      <trkpt lat="45.68422" lon="6.43467">
        <ele>1279</ele>
        <time>2017-05-26T17:09:15Z</time>
      </trkpt>
      <trkpt lat="45.6843" lon="6.43443">
        <ele>1251</ele>
        <time>2017-05-26T17:09:21Z</time>
      </trkpt>
      <trkpt lat="45.68418" lon="6.43411">
        <ele>1251</ele>
        <time>2017-05-26T17:09:27Z</time>
      </trkpt>
      <trkpt lat="45.68395" lon="6.43384">
        <ele>1251</ele>
        <time>2017-05-26T17:09:33Z</time>
      </trkpt>
      <trkpt lat="45.68378" lon="6.43355">
        <ele>1211</ele>
        <time>2017-05-26T17:09:39Z</time>
      </trkpt>
      <trkpt lat="45.68364" lon="6.43331">
        <ele>1228</ele>
        <time>2017-05-26T17:09:45Z</time>
      </trkpt>
      <trkpt lat="45.68343" lon="6.433">
        <ele>1228</ele>
        <time>2017-05-26T17:09:57Z</time>
      </trkpt>
      <trkpt lat="45.68328" lon="6.43281">
        <ele>1199</ele>
        <time>2017-05-26T17:10:03Z</time>
      </trkpt>
      <trkpt lat="45.68311" lon="6.4326">
        <ele>1199</ele>
        <time>2017-05-26T17:10:12Z</time>
      </trkpt>
      <trkpt lat="45.68293" lon="6.43236">
        <ele>1199</ele>
        <time>2017-05-26T17:10:27Z</time>
      </trkpt>
      <trkpt lat="45.68273" lon="6.43205">
        <ele>1177</ele>
        <time>2017-05-26T17:10:33Z</time>
      </trkpt>
      <trkpt lat="45.68253" lon="6.43179">
        <ele>1177</ele>
        <time>2017-05-26T17:10:39Z</time>
      </trkpt>
      <trkpt lat="45.68238" lon="6.43138">
        <ele>1177</ele>
        <time>2017-05-26T17:10:45Z</time>
      </trkpt>
      <trkpt lat="45.68223" lon="6.43112">
        <ele>1145</ele>
        <time>2017-05-26T17:10:48Z</time>
      </trkpt>
      <trkpt lat="45.68209" lon="6.43086">
        <ele>1145</ele>
        <time>2017-05-26T17:10:54Z</time>
      </trkpt>
      <trkpt lat="45.68189" lon="6.43039">
        <ele>1135</ele>
        <time>2017-05-26T17:11:00Z</time>
      </trkpt>
      <trkpt lat="45.68166" lon="6.43012">
        <ele>1135</ele>
        <time>2017-05-26T17:11:06Z</time>
      </trkpt>
      <trkpt lat="45.68148" lon="6.42997">
        <ele>1135</ele>
        <time>2017-05-26T17:11:12Z</time>
      </trkpt>
      <trkpt lat="45.68129" lon="6.42967">
        <ele>1135</ele>
        <time>2017-05-26T17:11:18Z</time>
      </trkpt>
      <trkpt lat="45.68114" lon="6.42926">
        <ele>1116</ele>
        <time>2017-05-26T17:11:24Z</time>
      </trkpt>
      <trkpt lat="45.68101" lon="6.42895">
        <ele>1116</ele>
        <time>2017-05-26T17:11:30Z</time>
      </trkpt>
      <trkpt lat="45.68084" lon="6.42863">
        <ele>1096</ele>
        <time>2017-05-26T17:11:36Z</time>
      </trkpt>
      <trkpt lat="45.68084" lon="6.42827">
        <ele>1096</ele>
        <time>2017-05-26T17:11:42Z</time>
      </trkpt>
      <trkpt lat="45.68105" lon="6.428">
        <ele>1096</ele>
        <time>2017-05-26T17:11:48Z</time>
      </trkpt>
      <trkpt lat="45.68109" lon="6.42769">
        <ele>1081</ele>
        <time>2017-05-26T17:11:54Z</time>
      </trkpt>
      <trkpt lat="45.68107" lon="6.42734">
        <ele>1081</ele>
        <time>2017-05-26T17:12:00Z</time>
      </trkpt>
      <trkpt lat="45.68105" lon="6.42695">
        <ele>1064</ele>
        <time>2017-05-26T17:12:06Z</time>
      </trkpt>
      <trkpt lat="45.681" lon="6.42655">
        <ele>1064</ele>
        <time>2017-05-26T17:12:12Z</time>
      </trkpt>
      <trkpt lat="45.68089" lon="6.42623">
        <ele>1044</ele>
        <time>2017-05-26T17:12:18Z</time>
      </trkpt>
      <trkpt lat="45.68086" lon="6.42587">
        <ele>1044</ele>
        <time>2017-05-26T17:12:24Z</time>
      </trkpt>
      <trkpt lat="45.68082" lon="6.42558">
        <ele>1044</ele>
        <time>2017-05-26T17:12:30Z</time>
      </trkpt>
      <trkpt lat="45.68074" lon="6.42531">
        <ele>1012</ele>
        <time>2017-05-26T17:12:36Z</time>
      </trkpt>
      <trkpt lat="45.68065" lon="6.42496">
        <ele>1012</ele>
        <time>2017-05-26T17:12:42Z</time>
      </trkpt>
      <trkpt lat="45.68056" lon="6.42468">
        <ele>1012</ele>
        <time>2017-05-26T17:12:48Z</time>
      </trkpt>
      <trkpt lat="45.68053" lon="6.42437">
        <ele>983</ele>
        <time>2017-05-26T17:12:57Z</time>
      </trkpt>
      <trkpt lat="45.68044" lon="6.42403">
        <ele>983</ele>
        <time>2017-05-26T17:13:03Z</time>
      </trkpt>
      <trkpt lat="45.68041" lon="6.42366">
        <ele>987</ele>
        <time>2017-05-26T17:13:09Z</time>
      </trkpt>
      <trkpt lat="45.68036" lon="6.42333">
        <ele>987</ele>
        <time>2017-05-26T17:13:15Z</time>
      </trkpt>
      <trkpt lat="45.6804" lon="6.42299">
        <ele>987</ele>
        <time>2017-05-26T17:14:03Z</time>
      </trkpt>
      <trkpt lat="45.68042" lon="6.4225">
        <ele>934</ele>
        <time>2017-05-26T17:14:09Z</time>
      </trkpt>
      <trkpt lat="45.6805" lon="6.42207">
        <ele>921</ele>
        <time>2017-05-26T17:14:15Z</time>
      </trkpt>
      <trkpt lat="45.68057" lon="6.42153">
        <ele>921</ele>
        <time>2017-05-26T17:14:21Z</time>
      </trkpt>
      <trkpt lat="45.68052" lon="6.42128">
        <ele>921</ele>
        <time>2017-05-26T17:14:27Z</time>
      </trkpt>
      <trkpt lat="45.68041" lon="6.421">
        <ele>924</ele>
        <time>2017-05-26T17:14:33Z</time>
      </trkpt>
      <trkpt lat="45.68039" lon="6.42073">
        <ele>924</ele>
        <time>2017-05-26T17:14:39Z</time>
      </trkpt>
      <trkpt lat="45.68054" lon="6.42037">
        <ele>878</ele>
        <time>2017-05-26T17:14:45Z</time>
      </trkpt>
      <trkpt lat="45.68057" lon="6.42">
        <ele>878</ele>
        <time>2017-05-26T17:14:51Z</time>
      </trkpt>
      <trkpt lat="45.68054" lon="6.41968">
        <ele>878</ele>
        <time>2017-05-26T17:14:57Z</time>
      </trkpt>
      <trkpt lat="45.68035" lon="6.41949">
        <ele>876</ele>
        <time>2017-05-26T17:15:03Z</time>
      </trkpt>
      <trkpt lat="45.68016" lon="6.4193">
        <ele>876</ele>
        <time>2017-05-26T17:15:06Z</time>
      </trkpt>
      <trkpt lat="45.68035" lon="6.41908">
        <ele>876</ele>
        <time>2017-05-26T17:15:12Z</time>
      </trkpt>
      <trkpt lat="45.68034" lon="6.41877">
        <ele>876</ele>
        <time>2017-05-26T17:15:39Z</time>
      </trkpt>
      <trkpt lat="45.68027" lon="6.41843">
        <ele>854</ele>
        <time>2017-05-26T17:15:45Z</time>
      </trkpt>
      <trkpt lat="45.68013" lon="6.4181">
        <ele>854</ele>
        <time>2017-05-26T17:15:51Z</time>
      </trkpt>
      <trkpt lat="45.67998" lon="6.41787">
        <ele>821</ele>
        <time>2017-05-26T17:16:00Z</time>
      </trkpt>
      <trkpt lat="45.67984" lon="6.41769">
        <ele>821</ele>
        <time>2017-05-26T17:16:06Z</time>
      </trkpt>
      <trkpt lat="45.67998" lon="6.4175">
        <ele>821</ele>
        <time>2017-05-26T17:16:12Z</time>
      </trkpt>
      <trkpt lat="45.67986" lon="6.41726">
        <ele>821</ele>
        <time>2017-05-26T17:16:18Z</time>
      </trkpt>
      <trkpt lat="45.67961" lon="6.41728">
        <ele>821</ele>
        <time>2017-05-26T17:16:33Z</time>
      </trkpt>
      <trkpt lat="45.67928" lon="6.41698">
        <ele>790</ele>
        <time>2017-05-26T17:16:39Z</time>
      </trkpt>
      <trkpt lat="45.67911" lon="6.41685">
        <ele>790</ele>
        <time>2017-05-26T17:16:42Z</time>
      </trkpt>
      <trkpt lat="45.67886" lon="6.41648">
        <ele>790</ele>
        <time>2017-05-26T17:16:45Z</time>
      </trkpt>
      <trkpt lat="45.67866" lon="6.41623">
        <ele>767</ele>
        <time>2017-05-26T17:16:48Z</time>
      </trkpt>
      <trkpt lat="45.67864" lon="6.41593">
        <ele>767</ele>
        <time>2017-05-26T17:16:54Z</time>
      </trkpt>
      <trkpt lat="45.67877" lon="6.41546">
        <ele>764</ele>
        <time>2017-05-26T17:17:00Z</time>
      </trkpt>
      <trkpt lat="45.67869" lon="6.41505">
        <ele>737</ele>
        <time>2017-05-26T17:17:06Z</time>
      </trkpt>
      <trkpt lat="45.67855" lon="6.41487">
        <ele>737</ele>
        <time>2017-05-26T17:17:12Z</time>
      </trkpt>
      <trkpt lat="45.67832" lon="6.4148">
        <ele>737</ele>
        <time>2017-05-26T17:17:27Z</time>
      </trkpt>
      <trkpt lat="45.6781" lon="6.41489">
        <ele>737</ele>
        <time>2017-05-26T17:17:33Z</time>
      </trkpt>
      <trkpt lat="45.67791" lon="6.41467">
        <ele>709</ele>
        <time>2017-05-26T17:17:45Z</time>
      </trkpt>
      <trkpt lat="45.67768" lon="6.41459">
        <ele>709</ele>
        <time>2017-05-26T17:18:15Z</time>
      </trkpt>
      <trkpt lat="45.67762" lon="6.41432">
        <ele>679</ele>
        <time>2017-05-26T17:18:27Z</time>
      </trkpt>
      <trkpt lat="45.67773" lon="6.41404">
        <ele>679</ele>
        <time>2017-05-26T17:18:51Z</time>
      </trkpt>
      <trkpt lat="45.67776" lon="6.41355">
        <ele>665</ele>
        <time>2017-05-26T17:18:57Z</time>
      </trkpt>
      <trkpt lat="45.67758" lon="6.41336">
        <ele>665</ele>
        <time>2017-05-26T17:19:00Z</time>
      </trkpt>
      <trkpt lat="45.67734" lon="6.41344">
        <ele>665</ele>
        <time>2017-05-26T17:19:03Z</time>
      </trkpt>
      <trkpt lat="45.67726" lon="6.41373">
        <ele>665</ele>
        <time>2017-05-26T17:19:06Z</time>
      </trkpt>
      <trkpt lat="45.67708" lon="6.41387">
        <ele>651</ele>
        <time>2017-05-26T17:19:12Z</time>
      </trkpt>
      <trkpt lat="45.67697" lon="6.41409">
        <ele>651</ele>
        <time>2017-05-26T17:19:21Z</time>
      </trkpt>
      <trkpt lat="45.67674" lon="6.41422">
        <ele>651</ele>
        <time>2017-05-26T17:19:27Z</time>
      </trkpt>
      <trkpt lat="45.67651" lon="6.41408">
        <ele>651</ele>
        <time>2017-05-26T17:19:33Z</time>
      </trkpt>
      <trkpt lat="45.67619" lon="6.41385">
        <ele>635</ele>
        <time>2017-05-26T17:19:45Z</time>
      </trkpt>
      <trkpt lat="45.67607" lon="6.41365">
        <ele>619</ele>
        <time>2017-05-26T17:19:48Z</time>
      </trkpt>
      <trkpt lat="45.67587" lon="6.41342">
        <ele>619</ele>
        <time>2017-05-26T17:19:54Z</time>
      </trkpt>
      <trkpt lat="45.67564" lon="6.41332">
        <ele>619</ele>
        <time>2017-05-26T17:19:57Z</time>
      </trkpt>
      <trkpt lat="45.67529" lon="6.41319">
        <ele>605</ele>
        <time>2017-05-26T17:20:03Z</time>
      </trkpt>
      <trkpt lat="45.67508" lon="6.413">
        <ele>605</ele>
        <time>2017-05-26T17:20:09Z</time>
      </trkpt>
      <trkpt lat="45.67493" lon="6.41278">
        <ele>593</ele>
        <time>2017-05-26T17:20:21Z</time>
      </trkpt>
      <trkpt lat="45.67469" lon="6.41262">
        <ele>593</ele>
        <time>2017-05-26T17:20:27Z</time>
      </trkpt>
      <trkpt lat="45.67453" lon="6.41244">
        <ele>582</ele>
        <time>2017-05-26T17:20:33Z</time>
      </trkpt>
      <trkpt lat="45.67427" lon="6.41227">
        <ele>582</ele>
        <time>2017-05-26T17:20:39Z</time>
      </trkpt>
      <trkpt lat="45.67417" lon="6.41186">
        <ele>569</ele>
        <time>2017-05-26T17:20:45Z</time>
      </trkpt>
      <trkpt lat="45.67404" lon="6.41161">
        <ele>569</ele>
        <time>2017-05-26T17:20:48Z</time>
      </trkpt>
      <trkpt lat="45.67385" lon="6.41143">
        <ele>569</ele>
        <time>2017-05-26T17:20:51Z</time>
      </trkpt>
      <trkpt lat="45.6737" lon="6.41118">
        <ele>556</ele>
        <time>2017-05-26T17:20:57Z</time>
      </trkpt>
      <trkpt lat="45.67358" lon="6.41097">
        <ele>556</ele>
        <time>2017-05-26T17:21:00Z</time>
      </trkpt>
      <trkpt lat="45.67349" lon="6.41071">
        <ele>556</ele>
        <time>2017-05-26T17:21:03Z</time>
      </trkpt>
      <trkpt lat="45.67333" lon="6.41044">
        <ele>556</ele>
        <time>2017-05-26T17:21:06Z</time>
      </trkpt>
      <trkpt lat="45.67317" lon="6.41012">
        <ele>551</ele>
        <time>2017-05-26T17:21:09Z</time>
      </trkpt>
      <trkpt lat="45.67302" lon="6.40975">
        <ele>551</ele>
        <time>2017-05-26T17:21:12Z</time>
      </trkpt>
      <trkpt lat="45.67283" lon="6.40948">
        <ele>527</ele>
        <time>2017-05-26T17:21:15Z</time>
      </trkpt>
      <trkpt lat="45.67256" lon="6.40926">
        <ele>527</ele>
        <time>2017-05-26T17:21:18Z</time>
      </trkpt>
      <trkpt lat="45.67233" lon="6.40903">
        <ele>527</ele>
        <time>2017-05-26T17:21:21Z</time>
      </trkpt>
      <trkpt lat="45.67205" lon="6.4092">
        <ele>510</ele>
        <time>2017-05-26T17:21:27Z</time>
      </trkpt>
      <trkpt lat="45.67185" lon="6.40927">
        <ele>510</ele>
        <time>2017-05-26T17:21:30Z</time>
      </trkpt>
      <trkpt lat="45.67166" lon="6.40921">
        <ele>510</ele>
        <time>2017-05-26T17:21:33Z</time>
      </trkpt>
      <trkpt lat="45.67147" lon="6.40913">
        <ele>510</ele>
        <time>2017-05-26T17:21:39Z</time>
      </trkpt>
      <trkpt lat="45.6714" lon="6.40883">
        <ele>510</ele>
        <time>2017-05-26T17:21:45Z</time>
      </trkpt>
      <trkpt lat="45.67143" lon="6.40856">
        <ele>494</ele>
        <time>2017-05-26T17:21:51Z</time>
      </trkpt>
      <trkpt lat="45.67123" lon="6.40835">
        <ele>481</ele>
        <time>2017-05-26T17:21:57Z</time>
      </trkpt>
      <trkpt lat="45.67103" lon="6.40789">
        <ele>466</ele>
        <time>2017-05-26T17:22:03Z</time>
      </trkpt>
      <trkpt lat="45.67102" lon="6.40762">
        <ele>466</ele>
        <time>2017-05-26T17:22:09Z</time>
      </trkpt>
      <trkpt lat="45.67111" lon="6.40732">
        <ele>466</ele>
        <time>2017-05-26T17:22:18Z</time>
      </trkpt>
      <trkpt lat="45.67103" lon="6.40707">
        <ele>458</ele>
        <time>2017-05-26T17:22:24Z</time>
      </trkpt>
      <trkpt lat="45.67094" lon="6.40676">
        <ele>458</ele>
        <time>2017-05-26T17:22:30Z</time>
      </trkpt>
      <trkpt lat="45.67086" lon="6.4064">
        <ele>458</ele>
        <time>2017-05-26T17:22:36Z</time>
      </trkpt>
      <trkpt lat="45.6708" lon="6.40615">
        <ele>443</ele>
        <time>2017-05-26T17:22:48Z</time>
      </trkpt>
      <trkpt lat="45.67073" lon="6.40583">
        <ele>443</ele>
        <time>2017-05-26T17:23:00Z</time>
      </trkpt>
      <trkpt lat="45.67084" lon="6.4056">
        <ele>443</ele>
        <time>2017-05-26T17:23:45Z</time>
      </trkpt>
      <trkpt lat="45.67085" lon="6.40526">
        <ele>521</ele>
        <time>2017-05-26T17:23:54Z</time>
      </trkpt>
      <trkpt lat="45.67093" lon="6.40495">
        <ele>431</ele>
        <time>2017-05-26T17:24:18Z</time>
      </trkpt>
      <trkpt lat="45.67093" lon="6.40468">
        <ele>431</ele>
        <time>2017-05-26T17:24:48Z</time>
      </trkpt>
      <trkpt lat="45.67095" lon="6.40442">
        <ele>431</ele>
        <time>2017-05-26T17:25:15Z</time>
      </trkpt>
      <trkpt lat="45.67087" lon="6.40418">
        <ele>431</ele>
        <time>2017-05-26T17:25:45Z</time>
      </trkpt>
      <trkpt lat="45.67084" lon="6.40391">
        <ele>431</ele>
        <time>2017-05-26T17:25:51Z</time>
      </trkpt>
      <trkpt lat="45.67084" lon="6.40355">
        <ele>432</ele>
        <time>2017-05-26T17:25:57Z</time>
      </trkpt>
      <trkpt lat="45.67085" lon="6.40327">
        <ele>432</ele>
        <time>2017-05-26T17:26:03Z</time>
      </trkpt>
      <trkpt lat="45.67094" lon="6.40305">
        <ele>432</ele>
        <time>2017-05-26T17:26:09Z</time>
      </trkpt>
      <trkpt lat="45.67093" lon="6.40278">
        <ele>434</ele>
        <time>2017-05-26T17:26:18Z</time>
      </trkpt>
      <trkpt lat="45.67092" lon="6.40249">
        <ele>434</ele>
        <time>2017-05-26T17:26:24Z</time>
      </trkpt>
      <trkpt lat="45.6709" lon="6.40219">
        <ele>434</ele>
        <time>2017-05-26T17:26:27Z</time>
      </trkpt>
      <trkpt lat="45.67079" lon="6.4017">
        <ele>437</ele>
        <time>2017-05-26T17:26:33Z</time>
      </trkpt>
      <trkpt lat="45.67066" lon="6.40131">
        <ele>437</ele>
        <time>2017-05-26T17:26:39Z</time>
      </trkpt>
      <trkpt lat="45.67062" lon="6.40093">
        <ele>440</ele>
        <time>2017-05-26T17:26:45Z</time>
      </trkpt>
      <trkpt lat="45.6706" lon="6.40066">
        <ele>440</ele>
        <time>2017-05-26T17:26:48Z</time>
      </trkpt>
      <trkpt lat="45.67056" lon="6.40036">
        <ele>447</ele>
        <time>2017-05-26T17:26:54Z</time>
      </trkpt>
      <trkpt lat="45.67045" lon="6.40011">
        <ele>447</ele>
        <time>2017-05-26T17:27:03Z</time>
      </trkpt>
      <trkpt lat="45.67023" lon="6.39982">
        <ele>396</ele>
        <time>2017-05-26T17:27:15Z</time>
      </trkpt>
      <trkpt lat="45.67019" lon="6.39938">
        <ele>397</ele>
        <time>2017-05-26T17:27:21Z</time>
      </trkpt>
      <trkpt lat="45.67038" lon="6.39913">
        <ele>397</ele>
        <time>2017-05-26T17:27:27Z</time>
      </trkpt>
      <trkpt lat="45.67052" lon="6.39879">
        <ele>441</ele>
        <time>2017-05-26T17:27:33Z</time>
      </trkpt>
      <trkpt lat="45.67054" lon="6.39853">
        <ele>427</ele>
        <time>2017-05-26T17:27:36Z</time>
      </trkpt>
      <trkpt lat="45.6707" lon="6.39841">
        <ele>427</ele>
        <time>2017-05-26T17:27:42Z</time>
      </trkpt>
      <trkpt lat="45.67089" lon="6.39832">
        <ele>427</ele>
        <time>2017-05-26T17:27:57Z</time>
      </trkpt>
      <trkpt lat="45.67105" lon="6.39799">
        <ele>427</ele>
        <time>2017-05-26T17:28:09Z</time>
      </trkpt>
      <trkpt lat="45.67125" lon="6.398">
        <ele>427</ele>
        <time>2017-05-26T17:28:18Z</time>
      </trkpt>
      <trkpt lat="45.67143" lon="6.39798">
        <ele>432</ele>
        <time>2017-05-26T17:28:27Z</time>
      </trkpt>
      <trkpt lat="45.67143" lon="6.39761">
        <ele>415</ele>
        <time>2017-05-26T17:28:33Z</time>
      </trkpt>
      <trkpt lat="45.67162" lon="6.39753">
        <ele>415</ele>
        <time>2017-05-26T17:28:45Z</time>
      </trkpt>
      <trkpt lat="45.67188" lon="6.39756">
        <ele>415</ele>
        <time>2017-05-26T17:28:57Z</time>
      </trkpt>
      <trkpt lat="45.67223" lon="6.39761">
        <ele>403</ele>
        <time>2017-05-26T17:29:03Z</time>
      </trkpt>
      <trkpt lat="45.67242" lon="6.39742">
        <ele>403</ele>
        <time>2017-05-26T17:29:06Z</time>
      </trkpt>
      <trkpt lat="45.67248" lon="6.39696">
        <ele>395</ele>
        <time>2017-05-26T17:29:15Z</time>
      </trkpt>
      <trkpt lat="45.67241" lon="6.39665">
        <ele>395</ele>
        <time>2017-05-26T17:29:18Z</time>
      </trkpt>
      <trkpt lat="45.67245" lon="6.39631">
        <ele>395</ele>
        <time>2017-05-26T17:29:21Z</time>
      </trkpt>
      <trkpt lat="45.67242" lon="6.39598">
        <ele>385</ele>
        <time>2017-05-26T17:29:24Z</time>
      </trkpt>
      <trkpt lat="45.67226" lon="6.39578">
        <ele>385</ele>
        <time>2017-05-26T17:29:27Z</time>
      </trkpt>
      <trkpt lat="45.67203" lon="6.39572">
        <ele>383</ele>
        <time>2017-05-26T17:29:30Z</time>
      </trkpt>
      <trkpt lat="45.67179" lon="6.39574">
        <ele>383</ele>
        <time>2017-05-26T17:29:36Z</time>
      </trkpt>
      <trkpt lat="45.67163" lon="6.39552">
        <ele>383</ele>
        <time>2017-05-26T17:29:39Z</time>
      </trkpt>
      <trkpt lat="45.67151" lon="6.39534">
        <ele>364</ele>
        <time>2017-05-26T17:29:42Z</time>
      </trkpt>
      <trkpt lat="45.67126" lon="6.39528">
        <ele>364</ele>
        <time>2017-05-26T17:29:45Z</time>
      </trkpt>
      <trkpt lat="45.67094" lon="6.39505">
        <ele>365</ele>
        <time>2017-05-26T17:29:48Z</time>
      </trkpt>
      <trkpt lat="45.67056" lon="6.39472">
        <ele>365</ele>
        <time>2017-05-26T17:29:51Z</time>
      </trkpt>
      <trkpt lat="45.67021" lon="6.39445">
        <ele>346</ele>
        <time>2017-05-26T17:29:54Z</time>
      </trkpt>
    </trkseg>
  </trk>
</gpx>